Time,TemperatureF,DewpointF,PressureIn,WindDirection,WindDirectionDegrees,WindSpeedMPH,WindSpeedGustMPH,Humidity,HourlyPrecipIn,Conditions,Clouds,dailyrainin,SoftwareType,DateUTC
2013-05-10 00:01:00,57.5,53.2,30.04,North,0,7.6,7.6,86,0.00,,,0.00,WUHU215HW,2013-05-10 05:01:00,
2013-05-10 00:04:00,57.5,53.3,30.04,North,0,7.6,7.6,86,0.00,,,0.00,WUHU215HW,2013-05-10 05:04:00,
2013-05-10 00:05:00,57.5,53.3,30.04,North,0,7.6,7.6,86,0.00,,,0.00,WUHU215HW,2013-05-10 05:05:00,
2013-05-10 00:06:00,57.5,53.3,30.04,North,0,7.6,7.6,86,0.00,,,0.00,WUHU215HW,2013-05-10 05:06:00,
2013-05-10 00:08:00,57.3,53.3,30.04,North,10,3.1,7.6,86,0.00,,,0.00,WUHU215HW,2013-05-10 05:08:00,
2013-05-10 00:11:00,57.3,53.2,30.04,WNW,293,1.5,7.6,86,0.00,,,0.00,WUHU215HW,2013-05-10 05:11:00,
2013-05-10 00:13:00,57.3,53.2,30.04,WNW,293,1.5,7.6,86,0.00,,,0.00,WUHU215HW,2013-05-10 05:13:00,
2013-05-10 00:14:00,57.3,53.2,30.04,WSW,248,4.0,7.6,86,0.00,,,0.00,WUHU215HW,2013-05-10 05:14:00,
2013-05-10 00:16:00,57.0,52.8,30.04,WSW,248,4.0,7.6,86,0.00,,,0.00,WUHU215HW,2013-05-10 05:16:00,
2013-05-10 00:17:00,57.0,52.8,30.04,WSW,248,4.0,4.0,86,0.00,,,0.00,WUHU215HW,2013-05-10 05:17:00,
2013-05-10 00:20:00,57.0,52.8,30.04,NNW,338,3.3,4.0,86,0.00,,,0.00,WUHU215HW,2013-05-10 05:20:00,
2013-05-10 00:21:00,57.0,52.8,30.04,North,354,3.3,4.0,86,0.00,,,0.00,WUHU215HW,2013-05-10 05:21:00,
2013-05-10 00:23:00,57.0,52.8,30.04,NNW,338,3.3,4.0,86,0.00,,,0.00,WUHU215HW,2013-05-10 05:23:00,
2013-05-10 00:26:00,56.8,52.8,30.04,NNW,338,4.2,4.2,86,0.00,,,0.00,WUHU215HW,2013-05-10 05:26:00,
2013-05-10 00:27:00,56.8,52.6,30.04,NNW,343,3.6,4.2,86,0.00,,,0.00,WUHU215HW,2013-05-10 05:27:00,
2013-05-10 00:28:00,56.8,52.6,30.04,North,0,5.3,5.3,86,0.00,,,0.00,WUHU215HW,2013-05-10 05:28:00,
2013-05-10 00:29:00,56.8,52.9,30.04,North,0,5.3,5.3,87,0.00,,,0.00,WUHU215HW,2013-05-10 05:29:00,
2013-05-10 00:30:00,56.8,52.9,30.04,North,0,5.3,5.3,87,0.00,,,0.00,WUHU215HW,2013-05-10 05:30:00,
2013-05-10 00:31:00,56.4,52.6,30.04,North,0,5.3,5.3,87,0.00,,,0.00,WUHU215HW,2013-05-10 05:31:00,
2013-05-10 00:33:00,56.4,52.6,30.04,NNW,338,5.3,5.3,87,0.00,,,0.00,WUHU215HW,2013-05-10 05:33:00,
2013-05-10 00:34:00,56.4,52.6,30.04,NNW,338,5.3,5.3,87,0.00,,,0.00,WUHU215HW,2013-05-10 05:34:00,
2013-05-10 00:38:00,56.3,52.4,30.04,NNW,338,6.2,6.2,87,0.00,,,0.00,WUHU215HW,2013-05-10 05:38:00,
2013-05-10 00:39:00,56.3,52.4,30.04,NNW,338,7.3,7.3,87,0.00,,,0.00,WUHU215HW,2013-05-10 05:39:00,
2013-05-10 00:41:00,56.1,52.4,30.04,NNW,341,5.2,7.3,87,0.00,,,0.00,WUHU215HW,2013-05-10 05:41:00,
2013-05-10 00:42:00,56.1,52.2,30.04,North,350,3.2,7.3,87,0.00,,,0.00,WUHU215HW,2013-05-10 05:42:00,
2013-05-10 00:43:00,56.1,52.2,30.04,NNE,23,1.5,7.3,87,0.00,,,0.00,WUHU215HW,2013-05-10 05:43:00,
2013-05-10 00:44:00,55.9,52.0,30.04,NNW,338,3.3,7.3,87,0.00,,,0.00,WUHU215HW,2013-05-10 05:44:00,
2013-05-10 00:45:00,55.9,52.0,30.04,NNW,338,3.3,7.3,87,0.00,,,0.00,WUHU215HW,2013-05-10 05:45:00,
2013-05-10 00:47:00,55.9,51.7,30.04,NNW,338,2.1,7.3,86,0.00,,,0.00,WUHU215HW,2013-05-10 05:47:00,
2013-05-10 00:49:00,55.7,51.5,30.04,North,0,6.9,7.3,86,0.00,,,0.00,WUHU215HW,2013-05-10 05:49:00,
2013-05-10 00:52:00,55.5,51.7,30.04,North,0,5.5,6.9,87,0.00,,,0.00,WUHU215HW,2013-05-10 05:52:00,
2013-05-10 00:54:00,55.5,51.7,30.04,NW,315,4.0,6.9,87,0.00,,,0.00,WUHU215HW,2013-05-10 05:54:00,
2013-05-10 00:55:00,55.4,51.7,30.04,NW,315,4.0,6.9,87,0.00,,,0.00,WUHU215HW,2013-05-10 05:55:00,
2013-05-10 00:56:00,55.4,51.7,30.04,NNW,338,5.5,6.9,87,0.00,,,0.00,WUHU215HW,2013-05-10 05:56:00,
2013-05-10 00:59:00,55.2,51.7,30.04,NNW,341,4.4,6.9,87,0.00,,,0.00,WUHU215HW,2013-05-10 05:59:00,
2013-05-10 01:00:00,55.2,51.7,30.04,NNW,348,3.4,6.2,87,0.00,,,0.00,WUHU215HW,2013-05-10 06:00:00,
2013-05-10 01:01:00,55.2,51.3,30.04,North,0,2.4,6.2,87,0.00,,,0.00,WUHU215HW,2013-05-10 06:01:00,
2013-05-10 01:02:00,55.2,51.3,30.04,North,0,2.4,5.5,87,0.00,,,0.00,WUHU215HW,2013-05-10 06:02:00,
2013-05-10 01:03:00,55.0,51.1,30.04,NNE,23,6.0,6.0,87,0.00,,,0.00,WUHU215HW,2013-05-10 06:03:00,
2013-05-10 01:05:00,55.0,51.1,30.04,NNE,19,4.7,6.0,87,0.00,,,0.00,WUHU215HW,2013-05-10 06:05:00,
2013-05-10 01:06:00,55.0,51.1,30.04,NNE,13,3.5,6.0,87,0.00,,,0.00,WUHU215HW,2013-05-10 06:06:00,
2013-05-10 01:07:00,54.8,51.0,30.04,North,0,5.3,6.0,87,0.00,,,0.00,WUHU215HW,2013-05-10 06:07:00,
2013-05-10 01:11:00,54.8,51.0,30.04,North,0,9.8,9.8,87,0.00,,,0.00,WUHU215HW,2013-05-10 06:11:00,
2013-05-10 01:12:00,54.6,50.8,30.04,North,0,9.8,9.8,87,0.00,,,0.00,WUHU215HW,2013-05-10 06:12:00,
2013-05-10 01:15:00,54.5,50.6,30.04,North,0,9.8,9.8,87,0.00,,,0.00,WUHU215HW,2013-05-10 06:15:00,
2013-05-10 01:16:00,54.5,50.6,30.04,North,0,2.9,9.8,87,0.00,,,0.00,WUHU215HW,2013-05-10 06:16:00,
2013-05-10 01:17:00,54.5,50.6,30.04,North,0,2.9,9.8,87,0.00,,,0.00,WUHU215HW,2013-05-10 06:17:00,
2013-05-10 01:18:00,54.3,50.4,30.04,NNW,338,6.9,9.8,87,0.00,,,0.00,WUHU215HW,2013-05-10 06:18:00,
2013-05-10 01:20:00,54.3,50.4,30.04,NNW,335,5.1,9.8,87,0.00,,,0.00,WUHU215HW,2013-05-10 06:20:00,
2013-05-10 01:22:00,54.3,50.4,30.04,NW,315,1.5,9.8,87,0.00,,,0.00,WUHU215HW,2013-05-10 06:22:00,
2013-05-10 01:24:00,54.3,50.4,30.04,NNE,23,8.2,8.2,87,0.00,,,0.00,WUHU215HW,2013-05-10 06:24:00,
2013-05-10 01:25:00,54.3,50.4,30.04,NNE,23,8.2,8.2,87,0.00,,,0.00,WUHU215HW,2013-05-10 06:25:00,
2013-05-10 01:26:00,54.3,50.4,30.04,NNE,18,6.7,8.2,87,0.00,,,0.00,WUHU215HW,2013-05-10 06:26:00,
2013-05-10 01:27:00,54.3,50.4,30.04,NNE,12,5.2,8.2,87,0.00,,,0.00,WUHU215HW,2013-05-10 06:27:00,
2013-05-10 01:29:00,54.3,50.4,30.04,North,0,3.8,8.2,87,0.00,,,0.00,WUHU215HW,2013-05-10 06:29:00,
2013-05-10 01:31:00,54.1,50.3,30.04,NNE,23,1.1,8.2,87,0.00,,,0.00,WUHU215HW,2013-05-10 06:31:00,
2013-05-10 01:33:00,54.1,50.3,30.04,NW,315,4.0,8.2,87,0.00,,,0.00,WUHU215HW,2013-05-10 06:33:00,
2013-05-10 01:34:00,54.1,50.3,30.04,NW,315,4.0,8.2,87,0.00,,,0.00,WUHU215HW,2013-05-10 06:34:00,
2013-05-10 01:36:00,54.1,50.3,30.04,NW,315,4.0,4.0,87,0.00,,,0.00,WUHU215HW,2013-05-10 06:36:00,
2013-05-10 01:37:00,53.9,50.3,30.04,North,0,4.6,4.6,87,0.00,,,0.00,WUHU215HW,2013-05-10 06:37:00,
2013-05-10 01:38:00,53.9,50.3,30.04,North,0,4.6,4.6,87,0.00,,,0.00,WUHU215HW,2013-05-10 06:38:00,
2013-05-10 01:39:00,53.7,50.3,30.04,North,353,4.5,4.6,87,0.00,,,0.00,WUHU215HW,2013-05-10 06:39:00,
2013-05-10 01:40:00,53.7,50.3,30.04,NNW,345,4.4,4.6,87,0.00,,,0.00,WUHU215HW,2013-05-10 06:40:00,
2013-05-10 01:41:00,53.7,50.3,30.04,NNE,23,6.2,6.2,87,0.00,,,0.00,WUHU215HW,2013-05-10 06:41:00,
2013-05-10 01:44:00,53.4,49.6,30.04,NNE,23,6.2,6.2,87,0.00,,,0.00,WUHU215HW,2013-05-10 06:44:00,
2013-05-10 01:45:00,53.4,49.6,30.04,NNE,23,6.2,6.2,87,0.00,,,0.00,WUHU215HW,2013-05-10 06:45:00,
2013-05-10 01:46:00,53.4,49.6,30.04,North,8,4.8,6.2,87,0.00,,,0.00,WUHU215HW,2013-05-10 06:46:00,
2013-05-10 01:48:00,53.4,49.9,30.04,North,0,4.6,6.2,88,0.00,,,0.00,WUHU215HW,2013-05-10 06:48:00,
2013-05-10 01:50:00,53.2,49.7,30.04,North,0,4.6,6.2,88,0.00,,,0.00,WUHU215HW,2013-05-10 06:50:00,
2013-05-10 01:52:00,53.2,49.7,30.04,NNE,12,3.2,6.2,88,0.00,,,0.00,WUHU215HW,2013-05-10 06:52:00,
2013-05-10 01:53:00,53.2,49.7,30.04,NNE,23,2.6,6.2,88,0.00,,,0.00,WUHU215HW,2013-05-10 06:53:00,
2013-05-10 01:54:00,53.2,49.7,30.04,North,10,2.3,6.2,88,0.00,,,0.00,WUHU215HW,2013-05-10 06:54:00,
2013-05-10 01:57:00,52.8,49.3,30.04,NNW,345,2.2,4.6,88,0.00,,,0.00,WUHU215HW,2013-05-10 06:57:00,
2013-05-10 01:58:00,52.8,49.3,30.04,North,353,2.2,4.6,88,0.00,,,0.00,WUHU215HW,2013-05-10 06:58:00,
2013-05-10 01:59:00,52.8,49.3,30.04,North,0,2.2,4.6,88,0.00,,,0.00,WUHU215HW,2013-05-10 06:59:00,
2013-05-10 02:00:00,52.8,49.3,30.04,North,0,2.2,4.6,88,0.00,,,0.00,WUHU215HW,2013-05-10 07:00:00,
2013-05-10 02:03:00,52.7,49.2,30.04,North,0,2.0,2.6,88,0.00,,,0.00,WUHU215HW,2013-05-10 07:03:00,
2013-05-10 02:04:00,52.7,49.2,30.04,North,0,1.9,2.2,88,0.00,,,0.00,WUHU215HW,2013-05-10 07:04:00,
2013-05-10 02:05:00,52.5,49.0,30.04,North,0,1.6,2.2,88,0.00,,,0.00,WUHU215HW,2013-05-10 07:05:00,
2013-05-10 02:07:00,52.5,49.0,30.04,NE,45,4.6,4.6,88,0.00,,,0.00,WUHU215HW,2013-05-10 07:07:00,
2013-05-10 02:08:00,52.5,49.0,30.04,NE,45,4.6,4.6,88,0.00,,,0.00,WUHU215HW,2013-05-10 07:08:00,
2013-05-10 02:09:00,52.3,49.0,30.04,NE,45,4.6,4.6,88,0.00,,,0.00,WUHU215HW,2013-05-10 07:09:00,
2013-05-10 02:10:00,52.3,49.0,30.04,NE,45,4.6,4.6,88,0.00,,,0.00,WUHU215HW,2013-05-10 07:10:00,
2013-05-10 02:12:00,52.3,49.0,30.04,NE,43,3.4,4.6,88,0.00,,,0.00,WUHU215HW,2013-05-10 07:12:00,
2013-05-10 02:13:00,52.3,49.0,30.04,NNW,338,2.6,4.6,88,0.00,,,0.00,WUHU215HW,2013-05-10 07:13:00,
2013-05-10 02:17:00,52.3,49.0,30.04,North,0,7.3,7.3,89,0.00,,,0.00,WUHU215HW,2013-05-10 07:17:00,
2013-05-10 02:19:00,52.1,48.9,30.04,NNW,347,5.9,7.3,89,0.00,,,0.00,WUHU215HW,2013-05-10 07:19:00,
2013-05-10 02:21:00,51.9,48.9,30.04,North,0,6.7,7.3,89,0.00,,,0.00,WUHU215HW,2013-05-10 07:21:00,
2013-05-10 02:23:00,51.9,48.9,30.04,North,0,5.8,7.3,89,0.00,,,0.00,WUHU215HW,2013-05-10 07:23:00,
2013-05-10 02:24:00,51.9,48.9,30.04,North,6,4.9,7.3,89,0.00,,,0.00,WUHU215HW,2013-05-10 07:24:00,
2013-05-10 02:25:00,51.9,48.9,30.04,NNE,14,4.5,7.3,89,0.00,,,0.00,WUHU215HW,2013-05-10 07:25:00,
2013-05-10 02:26:00,51.9,48.9,30.04,NNE,23,4.2,7.3,89,0.00,,,0.00,WUHU215HW,2013-05-10 07:26:00,
2013-05-10 02:30:00,51.9,48.7,30.04,North,0,0.8,6.7,89,0.00,,,0.00,WUHU215HW,2013-05-10 07:30:00,
2013-05-10 02:31:00,51.8,48.6,30.04,North,0,0.8,6.7,89,0.00,,,0.00,WUHU215HW,2013-05-10 07:31:00,
2013-05-10 02:34:00,51.6,48.4,30.04,North,0,3.3,4.2,89,0.00,,,0.00,WUHU215HW,2013-05-10 07:34:00,
2013-05-10 02:35:00,51.6,48.4,30.04,North,0,3.2,4.2,89,0.00,,,0.00,WUHU215HW,2013-05-10 07:35:00,
2013-05-10 02:36:00,51.6,48.4,30.04,North,0,3.2,4.2,89,0.00,,,0.00,WUHU215HW,2013-05-10 07:36:00,
2013-05-10 02:38:00,51.6,48.4,30.04,North,0,3.0,3.3,89,0.00,,,0.00,WUHU215HW,2013-05-10 07:38:00,
2013-05-10 02:40:00,51.6,48.4,30.04,North,0,2.9,3.3,89,0.00,,,0.00,WUHU215HW,2013-05-10 07:40:00,
2013-05-10 02:41:00,51.6,48.4,30.04,NW,315,0.0,3.3,89,0.00,,,0.00,WUHU215HW,2013-05-10 07:41:00,
2013-05-10 02:42:00,51.6,48.4,30.04,NNE,23,3.5,3.5,89,0.00,,,0.00,WUHU215HW,2013-05-10 07:42:00,
2013-05-10 02:43:00,51.6,48.4,30.04,NNE,23,3.5,3.5,89,0.00,,,0.00,WUHU215HW,2013-05-10 07:43:00,
2013-05-10 02:46:00,51.6,48.4,30.04,North,0,5.1,5.1,89,0.00,,,0.00,WUHU215HW,2013-05-10 07:46:00,
2013-05-10 02:47:00,51.6,48.4,30.04,North,0,5.1,5.1,89,0.00,,,0.00,WUHU215HW,2013-05-10 07:47:00,
2013-05-10 02:48:00,51.6,48.4,30.04,North,0,4.4,5.1,89,0.00,,,0.00,WUHU215HW,2013-05-10 07:48:00,
2013-05-10 02:51:00,51.6,48.4,30.04,NW,315,2.6,5.1,89,0.00,,,0.00,WUHU215HW,2013-05-10 07:51:00,
2013-05-10 02:52:00,51.6,48.4,30.04,NW,315,2.6,5.1,89,0.00,,,0.00,WUHU215HW,2013-05-10 07:52:00,
2013-05-10 02:53:00,51.6,48.4,30.04,NW,315,2.6,5.1,89,0.00,,,0.00,WUHU215HW,2013-05-10 07:53:00,
2013-05-10 02:54:00,51.6,48.4,30.04,NW,315,2.6,5.1,89,0.00,,,0.00,WUHU215HW,2013-05-10 07:54:00,
2013-05-10 02:55:00,51.6,48.4,30.04,North,0,7.1,7.1,89,0.00,,,0.00,WUHU215HW,2013-05-10 07:55:00,
2013-05-10 02:59:00,51.6,48.4,30.04,NNE,23,2.9,7.1,89,0.00,,,0.00,WUHU215HW,2013-05-10 07:59:00,
2013-05-10 03:00:00,51.6,48.4,30.04,NNE,23,2.9,7.1,89,0.00,,,0.00,WUHU215HW,2013-05-10 08:00:00,
2013-05-10 03:03:00,51.8,48.4,30.04,NNE,23,4.3,7.1,89,0.00,,,0.00,WUHU215HW,2013-05-10 08:03:00,
2013-05-10 03:04:00,51.8,48.4,30.04,NNE,23,4.3,7.1,89,0.00,,,0.00,WUHU215HW,2013-05-10 08:04:00,
2013-05-10 03:07:00,51.9,48.4,30.04,North,357,4.5,5.8,89,0.00,,,0.00,WUHU215HW,2013-05-10 08:07:00,
2013-05-10 03:10:00,51.9,48.7,30.04,NNW,338,2.0,5.8,89,0.00,,,0.00,WUHU215HW,2013-05-10 08:10:00,
2013-05-10 03:12:00,51.9,48.7,30.04,North,0,0.0,5.8,89,0.00,,,0.00,WUHU215HW,2013-05-10 08:12:00,
2013-05-10 03:15:00,51.9,48.7,30.04,North,0,0.2,5.8,89,0.00,,,0.00,WUHU215HW,2013-05-10 08:15:00,
2013-05-10 03:17:00,52.1,48.9,30.04,North,0,0.2,2.0,89,0.00,,,0.00,WUHU215HW,2013-05-10 08:17:00,
2013-05-10 03:20:00,52.1,48.9,30.04,North,0,5.0,5.8,89,0.00,,,0.00,WUHU215HW,2013-05-10 08:20:00,
2013-05-10 03:23:00,52.1,48.9,30.04,North,0,2.9,5.8,89,0.00,,,0.00,WUHU215HW,2013-05-10 08:23:00,
2013-05-10 03:25:00,52.1,48.9,30.04,North,0,2.6,5.8,89,0.00,,,0.00,WUHU215HW,2013-05-10 08:25:00,
2013-05-10 03:26:00,52.1,48.9,30.04,North,0,0.0,5.8,89,0.00,,,0.00,WUHU215HW,2013-05-10 08:26:00,
2013-05-10 03:27:00,52.1,48.9,30.04,NNW,338,10.7,10.7,89,0.00,,,0.00,WUHU215HW,2013-05-10 08:27:00,
2013-05-10 03:29:00,52.1,48.9,30.04,NNW,340,7.8,10.7,89,0.00,,,0.00,WUHU215HW,2013-05-10 08:29:00,
2013-05-10 03:32:00,52.3,48.9,30.04,North,0,2.2,10.7,89,0.00,,,0.00,WUHU215HW,2013-05-10 08:32:00,
2013-05-10 03:34:00,52.1,48.9,30.04,NNW,338,4.4,10.7,89,0.00,,,0.00,WUHU215HW,2013-05-10 08:34:00,
2013-05-10 03:35:00,52.3,49.1,30.04,NNW,338,4.4,10.7,89,0.00,,,0.00,WUHU215HW,2013-05-10 08:35:00,
2013-05-10 03:37:00,52.3,49.1,30.04,NNW,338,4.4,10.7,89,0.00,,,0.00,WUHU215HW,2013-05-10 08:37:00,
2013-05-10 03:38:00,52.3,49.1,30.04,NNW,338,4.4,10.7,89,0.00,,,0.00,WUHU215HW,2013-05-10 08:38:00,
2013-05-10 03:39:00,52.1,49.1,30.04,NNW,338,4.4,4.4,89,0.00,,,0.00,WUHU215HW,2013-05-10 08:39:00,
2013-05-10 03:43:00,52.1,49.1,30.04,NW,324,3.3,6.2,89,0.00,,,0.00,WUHU215HW,2013-05-10 08:43:00,
2013-05-10 03:44:00,52.1,48.9,30.04,NNW,338,2.0,6.2,89,0.00,,,0.00,WUHU215HW,2013-05-10 08:44:00,
2013-05-10 03:45:00,52.1,48.9,30.04,NNW,338,2.0,6.2,89,0.00,,,0.00,WUHU215HW,2013-05-10 08:45:00,
2013-05-10 03:47:00,52.1,48.6,30.04,NNW,338,8.2,8.2,88,0.00,,,0.00,WUHU215HW,2013-05-10 08:47:00,
2013-05-10 03:48:00,51.9,48.4,30.04,NNW,343,7.2,8.2,88,0.00,,,0.00,WUHU215HW,2013-05-10 08:48:00,
2013-05-10 03:50:00,51.9,48.4,30.04,NNW,338,10.0,10.0,88,0.00,,,0.00,WUHU215HW,2013-05-10 08:50:00,
2013-05-10 03:53:00,51.9,48.4,30.04,NNW,338,7.2,10.0,88,0.00,,,0.00,WUHU215HW,2013-05-10 08:53:00,
2013-05-10 03:55:00,51.9,48.4,30.04,North,357,3.1,10.0,88,0.00,,,0.00,WUHU215HW,2013-05-10 08:55:00,
2013-05-10 03:56:00,51.9,48.4,30.04,NNE,23,2.2,10.0,88,0.00,,,0.00,WUHU215HW,2013-05-10 08:56:00,
2013-05-10 03:58:00,51.8,48.3,30.04,NNE,23,2.2,10.0,88,0.00,,,0.00,WUHU215HW,2013-05-10 08:58:00,
2013-05-10 04:00:00,51.8,48.3,30.04,NE,45,8.2,10.0,88,0.00,,,0.00,WUHU215HW,2013-05-10 09:00:00,
2013-05-10 04:04:00,51.8,48.3,30.04,North,0,3.5,8.2,88,0.00,,,0.00,WUHU215HW,2013-05-10 09:04:00,
2013-05-10 04:05:00,51.8,48.3,30.04,North,6,3.1,8.2,88,0.00,,,0.00,WUHU215HW,2013-05-10 09:05:00,
2013-05-10 04:07:00,51.6,48.3,30.04,North,0,3.3,8.2,88,0.00,,,0.00,WUHU215HW,2013-05-10 09:07:00,
2013-05-10 04:12:00,51.6,48.1,30.04,NE,45,5.3,5.3,88,0.00,,,0.00,WUHU215HW,2013-05-10 09:12:00,
2013-05-10 04:13:00,51.6,48.1,30.04,NE,45,5.3,5.3,88,0.00,,,0.00,WUHU215HW,2013-05-10 09:13:00,
2013-05-10 04:15:00,51.6,48.1,30.04,NE,45,5.3,5.3,88,0.00,,,0.00,WUHU215HW,2013-05-10 09:15:00,
2013-05-10 04:16:00,51.6,48.1,30.04,NE,41,4.2,5.3,88,0.00,,,0.00,WUHU215HW,2013-05-10 09:16:00,
2013-05-10 04:17:00,51.6,48.1,30.04,NE,35,3.2,5.3,88,0.00,,,0.00,WUHU215HW,2013-05-10 09:17:00,
2013-05-10 04:19:00,51.6,48.1,30.04,North,0,6.4,6.4,88,0.00,,,0.00,WUHU215HW,2013-05-10 09:19:00,
2013-05-10 04:21:00,51.6,48.1,30.04,NE,45,6.9,6.9,88,0.00,,,0.00,WUHU215HW,2013-05-10 09:21:00,
2013-05-10 04:23:00,51.6,48.1,30.04,NE,39,3.1,6.9,88,0.00,,,0.00,WUHU215HW,2013-05-10 09:23:00,
2013-05-10 04:24:00,51.6,48.1,30.04,NNE,23,1.3,6.9,88,0.00,,,0.00,WUHU215HW,2013-05-10 09:24:00,
2013-05-10 04:25:00,51.6,48.1,30.04,NNE,23,1.3,6.9,88,0.00,,,0.00,WUHU215HW,2013-05-10 09:25:00,
2013-05-10 04:27:00,51.6,48.1,30.04,North,0,4.4,6.9,88,0.00,,,0.00,WUHU215HW,2013-05-10 09:27:00,
2013-05-10 04:29:00,51.6,48.1,30.04,North,0,7.8,7.8,88,0.00,,,0.00,WUHU215HW,2013-05-10 09:29:00,
2013-05-10 04:30:00,51.6,48.1,30.04,North,0,7.8,7.8,88,0.00,,,0.00,WUHU215HW,2013-05-10 09:30:00,
2013-05-10 04:32:00,51.6,48.1,30.04,North,0,7.8,7.8,88,0.00,,,0.00,WUHU215HW,2013-05-10 09:32:00,
2013-05-10 04:34:00,51.6,48.1,30.04,WNW,293,3.1,7.8,88,0.00,,,0.00,WUHU215HW,2013-05-10 09:34:00,
2013-05-10 04:35:00,51.6,48.1,30.04,NNE,23,4.6,7.8,88,0.00,,,0.00,WUHU215HW,2013-05-10 09:35:00,
2013-05-10 04:36:00,51.6,48.1,30.04,NNE,23,4.6,7.8,88,0.00,,,0.00,WUHU215HW,2013-05-10 09:36:00,
2013-05-10 04:38:00,51.6,48.1,30.04,NNE,23,5.5,7.8,88,0.00,,,0.00,WUHU215HW,2013-05-10 09:38:00,
2013-05-10 04:39:00,51.6,48.1,30.04,NNE,23,5.5,7.8,88,0.00,,,0.00,WUHU215HW,2013-05-10 09:39:00,
2013-05-10 04:41:00,51.6,48.1,30.04,NNE,23,5.5,5.5,88,0.00,,,0.00,WUHU215HW,2013-05-10 09:41:00,
2013-05-10 04:43:00,51.6,48.1,30.04,NNE,23,5.5,5.5,88,0.00,,,0.00,WUHU215HW,2013-05-10 09:43:00,
2013-05-10 04:46:00,51.6,48.1,30.04,North,0,5.1,5.5,88,0.00,,,0.00,WUHU215HW,2013-05-10 09:46:00,
2013-05-10 04:47:00,51.6,48.1,30.04,North,0,5.1,5.5,88,0.00,,,0.00,WUHU215HW,2013-05-10 09:47:00,
2013-05-10 04:49:00,51.6,48.1,30.04,NNW,347,4.2,5.5,88,0.00,,,0.00,WUHU215HW,2013-05-10 09:49:00,
2013-05-10 04:50:00,51.6,48.1,30.04,NNW,334,3.0,5.5,88,0.00,,,0.00,WUHU215HW,2013-05-10 09:50:00,
2013-05-10 04:52:00,51.6,48.1,30.04,NW,315,1.5,5.1,88,0.00,,,0.00,WUHU215HW,2013-05-10 09:52:00,
2013-05-10 04:54:00,51.6,48.1,30.04,North,0,4.9,5.1,88,0.00,,,0.00,WUHU215HW,2013-05-10 09:54:00,
2013-05-10 04:55:00,51.6,48.1,30.04,North,357,3.7,5.1,88,0.00,,,0.00,WUHU215HW,2013-05-10 09:55:00,
2013-05-10 04:56:00,51.6,48.1,30.04,North,351,2.6,5.1,88,0.00,,,0.00,WUHU215HW,2013-05-10 09:56:00,
2013-05-10 04:57:00,51.6,48.1,30.04,NNW,338,1.5,5.1,88,0.00,,,0.00,WUHU215HW,2013-05-10 09:57:00,
2013-05-10 04:58:00,51.6,48.1,30.04,NNW,338,1.5,4.9,88,0.00,,,0.00,WUHU215HW,2013-05-10 09:58:00,
2013-05-10 05:00:00,51.6,48.1,30.04,NNW,338,1.5,4.9,88,0.00,,,0.00,WUHU215HW,2013-05-10 10:00:00,
2013-05-10 05:02:00,51.6,48.1,30.04,North,0,2.2,4.9,88,0.00,,,0.00,WUHU215HW,2013-05-10 10:02:00,
2013-05-10 05:05:00,51.6,47.8,30.04,NNW,338,0.0,2.2,87,0.00,,,0.00,WUHU215HW,2013-05-10 10:05:00,
2013-05-10 05:07:00,51.6,47.8,30.04,NNW,338,10.2,10.2,87,0.00,,,0.00,WUHU215HW,2013-05-10 10:07:00,
2013-05-10 05:08:00,51.6,47.8,30.04,NNW,338,10.2,10.2,87,0.00,,,0.00,WUHU215HW,2013-05-10 10:08:00,
2013-05-10 05:13:00,51.6,47.8,30.04,NNE,23,5.3,10.2,87,0.00,,,0.00,WUHU215HW,2013-05-10 10:13:00,
2013-05-10 05:14:00,51.6,47.8,30.04,North,0,8.5,10.2,87,0.00,,,0.00,WUHU215HW,2013-05-10 10:14:00,
2013-05-10 05:15:00,51.6,47.8,30.04,North,0,8.5,10.2,87,0.00,,,0.00,WUHU215HW,2013-05-10 10:15:00,
2013-05-10 05:16:00,51.6,47.8,30.04,North,0,7.5,10.2,87,0.00,,,0.00,WUHU215HW,2013-05-10 10:16:00,
2013-05-10 05:20:00,51.6,47.8,30.04,North,350,4.9,8.5,87,0.00,,,0.00,WUHU215HW,2013-05-10 10:20:00,
2013-05-10 05:22:00,51.6,47.8,30.04,NNW,338,3.4,8.5,87,0.00,,,0.00,WUHU215HW,2013-05-10 10:22:00,
2013-05-10 05:23:00,51.6,47.8,30.04,NNW,338,2.5,8.5,87,0.00,,,0.00,WUHU215HW,2013-05-10 10:23:00,
2013-05-10 05:24:00,51.6,47.8,30.04,NNW,338,1.5,8.5,87,0.00,,,0.00,WUHU215HW,2013-05-10 10:24:00,
2013-05-10 05:26:00,51.6,47.8,30.04,North,0,4.0,5.5,87,0.00,,,0.00,WUHU215HW,2013-05-10 10:26:00,
2013-05-10 05:27:00,51.6,47.8,30.04,North,7,3.8,5.5,87,0.00,,,0.00,WUHU215HW,2013-05-10 10:27:00,
2013-05-10 05:30:00,51.6,47.8,30.04,NNE,23,3.5,4.4,87,0.00,,,0.00,WUHU215HW,2013-05-10 10:30:00,
2013-05-10 05:32:00,51.6,47.8,30.04,NNW,338,0.0,4.0,87,0.00,,,0.00,WUHU215HW,2013-05-10 10:32:00,
2013-05-10 05:34:00,51.6,47.8,30.04,North,0,4.0,4.0,87,0.00,,,0.00,WUHU215HW,2013-05-10 10:34:00,
2013-05-10 05:38:00,51.6,47.8,30.04,NNW,338,7.8,7.8,87,0.00,,,0.00,WUHU215HW,2013-05-10 10:38:00,
2013-05-10 05:39:00,51.6,47.8,30.04,NNW,338,7.8,7.8,87,0.00,,,0.00,WUHU215HW,2013-05-10 10:39:00,
2013-05-10 05:40:00,51.6,47.8,30.04,NNW,347,6.3,7.8,87,0.00,,,0.00,WUHU215HW,2013-05-10 10:40:00,
2013-05-10 05:41:00,51.6,47.8,30.04,North,1,5.0,7.8,87,0.00,,,0.00,WUHU215HW,2013-05-10 10:41:00,
2013-05-10 05:43:00,51.6,47.8,30.04,ENE,68,4.4,7.8,87,0.00,,,0.00,WUHU215HW,2013-05-10 10:43:00,
2013-05-10 05:44:00,51.6,47.8,30.04,ENE,63,3.6,7.8,87,0.00,,,0.00,WUHU215HW,2013-05-10 10:44:00,
2013-05-10 05:47:00,51.6,47.8,30.04,NE,45,2.2,7.8,87,0.00,,,0.00,WUHU215HW,2013-05-10 10:47:00,
2013-05-10 05:49:00,51.6,47.8,30.04,NNW,338,3.1,7.8,87,0.00,,,0.00,WUHU215HW,2013-05-10 10:49:00,
2013-05-10 05:51:00,51.6,47.8,30.04,NNE,23,3.3,4.4,87,0.00,,,0.00,WUHU215HW,2013-05-10 10:51:00,
2013-05-10 05:52:00,51.6,47.8,30.04,NNE,23,3.3,4.4,87,0.00,,,0.00,WUHU215HW,2013-05-10 10:52:00,
2013-05-10 05:53:00,51.6,47.8,30.04,NNE,23,3.3,4.4,87,0.00,,,0.00,WUHU215HW,2013-05-10 10:53:00,
2013-05-10 05:57:00,51.6,48.1,30.04,North,0,2.2,3.3,88,0.00,,,0.00,WUHU215HW,2013-05-10 10:57:00,
2013-05-10 05:58:00,51.6,48.1,30.04,North,0,2.2,3.3,88,0.00,,,0.00,WUHU215HW,2013-05-10 10:58:00,
2013-05-10 05:59:00,51.6,48.1,30.04,WNW,293,6.7,6.7,88,0.00,,,0.00,WUHU215HW,2013-05-10 10:59:00,
2013-05-10 06:01:00,51.6,48.1,30.04,WNW,293,6.7,6.7,88,0.00,,,0.00,WUHU215HW,2013-05-10 11:01:00,
2013-05-10 06:02:00,51.6,48.1,30.04,WNW,293,6.7,6.7,88,0.00,,,0.00,WUHU215HW,2013-05-10 11:02:00,
2013-05-10 06:04:00,51.4,47.9,30.04,NNE,23,5.3,6.7,88,0.00,,,0.00,WUHU215HW,2013-05-10 11:04:00,
2013-05-10 06:05:00,51.4,47.9,30.04,NNE,23,4.3,6.7,88,0.00,,,0.00,WUHU215HW,2013-05-10 11:05:00,
2013-05-10 06:07:00,51.4,47.9,30.04,North,0,3.8,6.7,88,0.00,,,0.00,WUHU215HW,2013-05-10 11:07:00,
2013-05-10 06:08:00,51.4,47.9,30.04,North,0,3.8,6.7,88,0.00,,,0.00,WUHU215HW,2013-05-10 11:08:00,
2013-05-10 06:10:00,51.4,47.9,30.04,NNW,347,3.4,6.7,88,0.00,,,0.00,WUHU215HW,2013-05-10 11:10:00,
2013-05-10 06:13:00,51.2,47.7,30.04,NW,315,3.3,5.3,88,0.00,,,0.00,WUHU215HW,2013-05-10 11:13:00,
2013-05-10 06:15:00,51.0,47.5,30.04,NNW,338,4.9,4.9,88,0.00,,,0.00,WUHU215HW,2013-05-10 11:15:00,
2013-05-10 06:16:00,51.0,47.5,30.04,NNW,338,4.9,4.9,88,0.00,,,0.00,WUHU215HW,2013-05-10 11:16:00,
2013-05-10 06:21:00,50.9,47.4,30.04,North,349,4.2,6.2,88,0.00,,,0.00,WUHU215HW,2013-05-10 11:21:00,
2013-05-10 06:22:00,50.9,47.4,30.04,North,7,3.1,6.2,88,0.00,,,0.00,WUHU215HW,2013-05-10 11:22:00,
2013-05-10 06:26:00,50.7,47.2,30.04,North,0,3.8,6.2,88,0.00,,,0.00,WUHU215HW,2013-05-10 11:26:00,
2013-05-10 06:27:00,50.7,47.2,30.04,NNW,338,6.2,6.2,88,0.00,,,0.00,WUHU215HW,2013-05-10 11:27:00,
2013-05-10 06:30:00,50.7,47.2,30.04,NNW,338,6.2,6.2,88,0.00,,,0.00,WUHU215HW,2013-05-10 11:30:00,
2013-05-10 06:31:00,50.5,47.0,30.04,NNW,338,0.0,6.2,88,0.00,,,0.00,WUHU215HW,2013-05-10 11:31:00,
2013-05-10 06:32:00,50.5,47.0,30.04,NNW,338,0.0,6.2,88,0.00,,,0.00,WUHU215HW,2013-05-10 11:32:00,
2013-05-10 06:34:00,50.5,47.0,30.04,North,0,0.0,6.2,88,0.00,,,0.00,WUHU215HW,2013-05-10 11:34:00,
2013-05-10 06:36:00,50.5,47.0,30.04,NNW,338,0.0,6.2,88,0.00,,,0.00,WUHU215HW,2013-05-10 11:36:00,
2013-05-10 06:37:00,50.5,47.0,30.04,North,0,1.5,6.2,88,0.00,,,0.00,WUHU215HW,2013-05-10 11:37:00,
2013-05-10 06:39:00,50.5,47.0,30.04,North,353,1.5,1.5,88,0.00,,,0.00,WUHU215HW,2013-05-10 11:39:00,
2013-05-10 06:40:00,50.5,47.0,30.04,NNW,345,1.5,1.5,88,0.00,,,0.00,WUHU215HW,2013-05-10 11:40:00,
2013-05-10 06:42:00,50.5,47.0,30.04,North,0,2.4,2.4,88,0.00,,,0.00,WUHU215HW,2013-05-10 11:42:00,
2013-05-10 06:43:00,50.5,47.0,30.04,North,0,2.4,2.4,88,0.00,,,0.00,WUHU215HW,2013-05-10 11:43:00,
2013-05-10 06:44:00,50.3,46.8,30.04,NW,315,2.6,2.6,88,0.00,,,0.00,WUHU215HW,2013-05-10 11:44:00,
2013-05-10 06:47:00,50.3,46.8,30.04,WNW,293,3.5,3.5,88,0.00,,,0.00,WUHU215HW,2013-05-10 11:47:00,
2013-05-10 06:48:00,50.3,46.8,30.04,WNW,293,3.5,3.5,88,0.00,,,0.00,WUHU215HW,2013-05-10 11:48:00,
2013-05-10 06:49:00,50.3,46.8,30.04,WNW,293,3.5,3.5,88,0.00,,,0.00,WUHU215HW,2013-05-10 11:49:00,
2013-05-10 06:52:00,50.3,46.8,30.04,North,0,0.0,3.5,88,0.00,,,0.00,WUHU215HW,2013-05-10 11:52:00,
2013-05-10 06:53:00,50.3,46.8,30.04,North,0,0.0,3.5,88,0.00,,,0.00,WUHU215HW,2013-05-10 11:53:00,
2013-05-10 06:54:00,50.3,46.8,30.04,NNW,338,6.7,6.7,88,0.00,,,0.00,WUHU215HW,2013-05-10 11:54:00,
2013-05-10 06:57:00,50.3,46.8,30.04,NNW,346,4.8,6.7,88,0.00,,,0.00,WUHU215HW,2013-05-10 11:57:00,
2013-05-10 06:59:00,50.1,46.6,30.04,NE,38,2.2,6.7,88,0.00,,,0.00,WUHU215HW,2013-05-10 11:59:00,
2013-05-10 07:00:00,50.1,46.6,30.04,NNE,31,2.1,6.7,88,0.00,,,0.00,WUHU215HW,2013-05-10 12:00:00,
2013-05-10 07:02:00,50.1,46.6,30.04,NW,315,3.5,6.7,88,0.00,,,0.00,WUHU215HW,2013-05-10 12:02:00,
2013-05-10 07:04:00,50.1,46.6,30.04,NNW,342,2.7,6.7,88,0.00,,,0.00,WUHU215HW,2013-05-10 12:04:00,
2013-05-10 07:05:00,50.1,46.6,30.04,North,0,2.0,6.7,88,0.00,,,0.00,WUHU215HW,2013-05-10 12:05:00,
2013-05-10 07:07:00,50.1,46.6,30.04,North,0,0.8,3.5,88,0.00,,,0.00,WUHU215HW,2013-05-10 12:07:00,
2013-05-10 07:10:00,50.1,46.6,30.04,NNE,23,5.1,5.1,88,0.00,,,0.00,WUHU215HW,2013-05-10 12:10:00,
2013-05-10 07:12:00,50.1,46.6,30.04,NNE,23,5.1,5.1,88,0.00,,,0.00,WUHU215HW,2013-05-10 12:12:00,
2013-05-10 07:13:00,50.1,46.6,30.04,NNE,23,5.1,5.1,88,0.00,,,0.00,WUHU215HW,2013-05-10 12:13:00,
2013-05-10 07:16:00,49.8,46.3,30.04,NW,315,0.6,5.1,88,0.00,,,0.00,WUHU215HW,2013-05-10 12:16:00,
2013-05-10 07:18:00,49.8,46.3,30.04,NNW,338,1.5,5.1,88,0.00,,,0.00,WUHU215HW,2013-05-10 12:18:00,
2013-05-10 07:19:00,49.8,46.3,30.04,NNW,338,1.5,5.1,88,0.00,,,0.00,WUHU215HW,2013-05-10 12:19:00,
2013-05-10 07:24:00,50.0,46.5,30.04,NNE,23,1.1,1.5,88,0.00,,,0.00,WUHU215HW,2013-05-10 12:24:00,
2013-05-10 07:25:00,50.0,46.5,30.04,North,0,0.0,1.5,88,0.00,,,0.00,WUHU215HW,2013-05-10 12:25:00,
2013-05-10 07:28:00,50.0,46.5,30.04,North,0,2.6,2.6,88,0.00,,,0.00,WUHU215HW,2013-05-10 12:28:00,
2013-05-10 07:30:00,50.1,46.6,30.04,NNE,13,2.0,2.6,88,0.00,,,0.00,WUHU215HW,2013-05-10 12:30:00,
2013-05-10 07:31:00,50.0,46.5,30.04,NNE,23,1.7,2.6,88,0.00,,,0.00,WUHU215HW,2013-05-10 12:31:00,
2013-05-10 07:33:00,50.1,46.6,30.04,NNE,23,1.7,2.6,88,0.00,,,0.00,WUHU215HW,2013-05-10 12:33:00,
2013-05-10 07:36:00,50.1,46.6,30.04,North,0,3.3,3.3,88,0.00,,,0.00,WUHU215HW,2013-05-10 12:36:00,
2013-05-10 07:37:00,50.1,46.6,30.04,North,0,3.3,3.3,88,0.00,,,0.00,WUHU215HW,2013-05-10 12:37:00,
2013-05-10 07:38:00,50.1,46.6,30.04,North,0,3.3,3.3,88,0.00,,,0.00,WUHU215HW,2013-05-10 12:38:00,
2013-05-10 07:41:00,50.1,46.6,30.04,NNW,338,2.2,3.3,88,0.00,,,0.00,WUHU215HW,2013-05-10 12:41:00,
2013-05-10 07:43:00,50.1,46.6,30.04,NNW,338,2.2,3.3,88,0.00,,,0.00,WUHU215HW,2013-05-10 12:43:00,
2013-05-10 07:47:00,50.1,46.6,30.04,NE,45,3.8,3.8,88,0.00,,,0.00,WUHU215HW,2013-05-10 12:47:00,
2013-05-10 07:48:00,50.1,46.6,30.04,NE,45,3.8,3.8,88,0.00,,,0.00,WUHU215HW,2013-05-10 12:48:00,
2013-05-10 07:49:00,50.1,46.6,30.04,NE,45,3.8,3.8,89,0.00,,,0.00,WUHU215HW,2013-05-10 12:49:00,
2013-05-10 07:51:00,50.1,46.6,30.04,NNW,338,0.0,3.8,89,0.00,,,0.00,WUHU215HW,2013-05-10 12:51:00,
2013-05-10 07:53:00,50.1,46.9,30.04,NNW,338,7.1,7.1,89,0.00,,,0.00,WUHU215HW,2013-05-10 12:53:00,
2013-05-10 07:56:00,50.1,46.9,30.04,North,351,6.1,7.1,89,0.00,,,0.00,WUHU215HW,2013-05-10 12:56:00,
2013-05-10 07:57:00,50.1,46.9,30.04,North,355,4.3,7.1,89,0.00,,,0.00,WUHU215HW,2013-05-10 12:57:00,
2013-05-10 07:58:00,50.1,46.9,30.04,NNW,344,2.8,7.1,89,0.00,,,0.00,WUHU215HW,2013-05-10 12:58:00,
2013-05-10 08:03:00,50.1,46.9,30.04,NNE,23,2.6,7.1,89,0.00,,,0.00,WUHU215HW,2013-05-10 13:03:00,
2013-05-10 08:05:00,50.1,46.9,30.04,North,0,0.0,5.8,89,0.00,,,0.00,WUHU215HW,2013-05-10 13:05:00,
2013-05-10 08:06:00,50.1,46.9,30.04,NNE,23,1.7,5.8,89,0.00,,,0.00,WUHU215HW,2013-05-10 13:06:00,
2013-05-10 08:07:00,50.1,46.9,30.04,NNE,13,1.5,2.6,89,0.00,,,0.00,WUHU215HW,2013-05-10 13:07:00,
2013-05-10 08:09:00,50.1,46.9,30.04,North,0,1.3,2.6,89,0.00,,,0.00,WUHU215HW,2013-05-10 13:09:00,
2013-05-10 08:10:00,50.1,46.9,30.04,North,0,7.6,7.6,89,0.00,,,0.00,WUHU215HW,2013-05-10 13:10:00,
2013-05-10 08:12:00,50.3,47.1,30.04,North,0,7.6,7.6,89,0.00,,,0.00,WUHU215HW,2013-05-10 13:12:00,
2013-05-10 08:13:00,50.3,47.1,30.04,North,0,7.6,7.6,89,0.00,,,0.00,WUHU215HW,2013-05-10 13:13:00,
2013-05-10 08:14:00,50.3,47.1,30.04,NNE,23,0.0,7.6,89,0.00,,,0.00,WUHU215HW,2013-05-10 13:14:00,
2013-05-10 08:15:00,50.3,47.1,30.04,NNE,23,0.0,7.6,89,0.00,,,0.00,WUHU215HW,2013-05-10 13:15:00,
2013-05-10 08:17:00,50.3,47.1,30.04,North,0,2.2,7.6,89,0.00,,,0.00,WUHU215HW,2013-05-10 13:17:00,
2013-05-10 08:18:00,50.3,47.3,30.04,NNE,23,4.0,7.6,89,0.00,,,0.00,WUHU215HW,2013-05-10 13:18:00,
2013-05-10 08:21:00,50.5,47.3,30.04,NE,48,2.8,7.6,88,0.00,,,0.00,WUHU215HW,2013-05-10 13:21:00,
2013-05-10 08:22:00,50.5,47.3,30.04,ENE,68,2.6,4.0,88,0.00,,,0.00,WUHU215HW,2013-05-10 13:22:00,
2013-05-10 08:24:00,50.5,47.3,30.04,ENE,68,2.6,4.0,88,0.00,,,0.00,WUHU215HW,2013-05-10 13:24:00,
2013-05-10 08:26:00,50.5,47.3,30.04,NW,315,3.8,4.0,88,0.00,,,0.00,WUHU215HW,2013-05-10 13:26:00,
2013-05-10 08:28:00,50.5,47.0,30.04,NW,315,3.8,4.0,88,0.00,,,0.00,WUHU215HW,2013-05-10 13:28:00,
2013-05-10 08:30:00,50.5,47.0,30.04,North,0,3.5,3.8,88,0.00,,,0.00,WUHU215HW,2013-05-10 13:30:00,
2013-05-10 08:31:00,50.7,47.2,30.04,NNW,338,6.9,6.9,88,0.00,,,0.00,WUHU215HW,2013-05-10 13:31:00,
2013-05-10 08:35:00,50.7,47.2,30.04,North,0,5.5,6.9,88,0.00,,,0.00,WUHU215HW,2013-05-10 13:35:00,
2013-05-10 08:36:00,50.7,47.2,30.04,North,353,5.2,6.9,88,0.00,,,0.00,WUHU215HW,2013-05-10 13:36:00,
2013-05-10 08:37:00,50.7,47.2,30.04,NNW,346,5.0,6.9,88,0.00,,,0.00,WUHU215HW,2013-05-10 13:37:00,
2013-05-10 08:39:00,50.7,47.2,30.04,NNW,338,4.9,6.9,88,0.00,,,0.00,WUHU215HW,2013-05-10 13:39:00,
2013-05-10 08:40:00,50.7,47.2,30.04,NNW,339,3.5,6.9,88,0.00,,,0.00,WUHU215HW,2013-05-10 13:40:00,
2013-05-10 08:41:00,50.7,47.2,30.04,NNW,343,2.1,6.9,88,0.00,,,0.00,WUHU215HW,2013-05-10 13:41:00,
2013-05-10 08:44:00,50.7,46.9,30.04,NW,322,5.1,5.5,87,0.00,,,0.00,WUHU215HW,2013-05-10 13:44:00,
2013-05-10 08:46:00,50.7,46.9,30.04,NNW,343,3.6,5.3,87,0.00,,,0.00,WUHU215HW,2013-05-10 13:46:00,
2013-05-10 08:47:00,50.7,46.9,30.04,North,354,2.4,5.3,87,0.00,,,0.00,WUHU215HW,2013-05-10 13:47:00,
2013-05-10 08:49:00,50.7,46.9,30.04,North,8,1.3,5.3,87,0.00,,,0.00,WUHU215HW,2013-05-10 13:49:00,
2013-05-10 08:51:00,50.7,46.9,30.04,North,0,1.3,5.3,87,0.00,,,0.00,WUHU215HW,2013-05-10 13:51:00,
2013-05-10 08:52:00,50.7,46.9,30.04,NNW,338,0.0,5.3,87,0.00,,,0.00,WUHU215HW,2013-05-10 13:52:00,
2013-05-10 08:54:00,50.7,46.9,30.04,NNW,338,0.0,4.9,87,0.00,,,0.00,WUHU215HW,2013-05-10 13:54:00,
2013-05-10 08:55:00,50.7,46.9,30.04,NNW,338,0.0,4.9,87,0.00,,,0.00,WUHU215HW,2013-05-10 13:55:00,
2013-05-10 08:58:00,50.7,46.9,30.04,NNW,338,1.7,1.7,87,0.00,,,0.00,WUHU215HW,2013-05-10 13:58:00,
2013-05-10 08:59:00,50.7,46.9,30.04,NNW,344,1.5,1.7,87,0.00,,,0.00,WUHU215HW,2013-05-10 13:59:00,
2013-05-10 09:01:00,50.8,47.1,30.04,NE,45,1.7,1.7,87,0.00,,,0.00,WUHU215HW,2013-05-10 14:01:00,
2013-05-10 09:02:00,50.8,47.0,30.04,NE,45,1.7,1.7,87,0.00,,,0.00,WUHU215HW,2013-05-10 14:02:00,
2013-05-10 09:04:00,50.5,46.7,30.04,North,0,7.3,7.3,87,0.00,,,0.00,WUHU215HW,2013-05-10 14:04:00,
2013-05-10 09:07:00,50.3,46.6,30.04,North,0,1.3,7.3,87,0.00,,,0.00,WUHU215HW,2013-05-10 14:07:00,
2013-05-10 09:08:00,50.5,46.7,30.04,NNE,23,3.5,7.3,87,0.00,,,0.00,WUHU215HW,2013-05-10 14:08:00,
2013-05-10 09:09:00,50.4,46.7,30.04,NNE,23,3.5,7.3,87,0.00,,,0.00,WUHU215HW,2013-05-10 14:09:00,
2013-05-10 09:10:00,50.4,46.6,30.04,NNE,23,3.5,7.3,87,0.00,,,0.00,WUHU215HW,2013-05-10 14:10:00,
2013-05-10 09:13:00,50.3,46.6,30.04,NNE,23,2.8,7.3,87,0.00,,,0.00,WUHU215HW,2013-05-10 14:13:00,
2013-05-10 09:14:00,50.3,46.5,30.04,NNE,17,2.1,3.5,87,0.00,,,0.00,WUHU215HW,2013-05-10 14:14:00,
2013-05-10 09:16:00,50.4,46.6,30.04,NW,315,6.2,6.2,87,0.00,,,0.00,WUHU215HW,2013-05-10 14:16:00,
2013-05-10 09:17:00,50.3,46.6,30.04,NW,315,6.2,6.2,87,0.00,,,0.00,WUHU215HW,2013-05-10 14:17:00,
2013-05-10 09:19:00,50.2,46.5,30.04,NW,315,6.2,6.2,87,0.00,,,0.00,WUHU215HW,2013-05-10 14:19:00,
2013-05-10 09:21:00,50.3,46.6,30.04,NW,315,4.9,6.2,87,0.00,,,0.00,WUHU215HW,2013-05-10 14:21:00,
2013-05-10 09:23:00,50.2,46.5,30.04,NW,315,2.2,6.2,87,0.00,,,0.00,WUHU215HW,2013-05-10 14:23:00,
2013-05-10 09:26:00,50.3,46.5,30.04,NE,45,2.4,6.2,87,0.00,,,0.00,WUHU215HW,2013-05-10 14:26:00,
2013-05-10 09:28:00,50.2,46.4,30.04,NE,45,2.4,6.2,87,0.00,,,0.00,WUHU215HW,2013-05-10 14:28:00,
2013-05-10 09:30:00,50.1,46.0,30.04,NNE,23,4.0,6.2,86,0.00,,,0.00,WUHU215HW,2013-05-10 14:30:00,
2013-05-10 09:32:00,50.0,45.9,30.04,NNE,23,7.6,7.6,86,0.00,,,0.00,WUHU215HW,2013-05-10 14:32:00,
2013-05-10 09:34:00,49.9,45.8,30.04,North,8,6.9,7.6,86,0.00,,,0.00,WUHU215HW,2013-05-10 14:34:00,
2013-05-10 09:36:00,49.8,45.7,30.04,North,0,4.9,7.6,86,0.00,,,0.00,WUHU215HW,2013-05-10 14:36:00,
2013-05-10 09:37:00,49.7,45.7,30.04,North,0,4.0,7.6,86,0.00,,,0.00,WUHU215HW,2013-05-10 14:37:00,
2013-05-10 09:39:00,49.6,45.6,30.04,North,0,4.0,7.6,86,0.00,,,0.00,WUHU215HW,2013-05-10 14:39:00,
2013-05-10 09:41:00,49.7,45.7,30.04,NNW,334,1.8,7.6,86,0.00,,,0.00,WUHU215HW,2013-05-10 14:41:00,
2013-05-10 09:45:00,49.6,45.6,30.04,North,0,4.4,4.4,86,0.00,,,0.00,WUHU215HW,2013-05-10 14:45:00,
2013-05-10 09:46:00,49.6,45.5,30.04,West,270,0.0,4.4,86,0.00,,,0.00,WUHU215HW,2013-05-10 14:46:00,
2013-05-10 09:47:00,49.5,45.5,30.04,West,270,0.0,4.4,86,0.00,,,0.00,WUHU215HW,2013-05-10 14:47:00,
2013-05-10 09:50:00,49.8,45.7,30.04,NW,315,1.7,4.4,86,0.00,,,0.00,WUHU215HW,2013-05-10 14:50:00,
2013-05-10 09:51:00,49.7,45.7,30.04,NW,315,1.7,4.4,86,0.00,,,0.00,WUHU215HW,2013-05-10 14:51:00,
2013-05-10 09:52:00,49.7,45.6,30.04,NW,315,1.7,4.4,86,0.00,,,0.00,WUHU215HW,2013-05-10 14:52:00,
2013-05-10 09:53:00,49.8,45.8,30.04,NW,315,1.7,1.7,86,0.00,,,0.00,WUHU215HW,2013-05-10 14:53:00,
2013-05-10 09:56:00,49.9,45.6,30.04,NNE,23,6.0,6.0,85,0.00,,,0.00,WUHU215HW,2013-05-10 14:56:00,
2013-05-10 09:57:00,49.9,45.6,30.04,NNE,27,5.0,6.0,85,0.00,,,0.00,WUHU215HW,2013-05-10 14:57:00,
2013-05-10 10:00:00,49.8,45.5,30.04,NE,34,2.1,6.0,85,0.00,,,0.00,WUHU215HW,2013-05-10 15:00:00,
2013-05-10 10:01:00,50.0,45.3,30.04,NNW,338,6.7,6.7,84,0.00,,,0.00,WUHU215HW,2013-05-10 15:01:00,
2013-05-10 10:05:00,49.8,45.1,30.04,NNW,338,6.7,6.7,84,0.00,,,0.00,WUHU215HW,2013-05-10 15:05:00,
2013-05-10 10:06:00,49.9,45.3,30.04,NNW,344,5.1,6.7,84,0.00,,,0.00,WUHU215HW,2013-05-10 15:06:00,
2013-05-10 10:07:00,49.9,45.2,30.04,North,357,3.7,6.7,84,0.00,,,0.00,WUHU215HW,2013-05-10 15:07:00,
2013-05-10 10:08:00,49.8,45.2,30.04,NW,315,2.6,6.7,84,0.00,,,0.00,WUHU215HW,2013-05-10 15:08:00,
2013-05-10 10:12:00,49.7,45.0,30.04,NNW,338,2.0,6.7,84,0.00,,,0.00,WUHU215HW,2013-05-10 15:12:00,
2013-05-10 10:13:00,49.6,45.0,30.04,NNW,338,2.0,6.7,84,0.00,,,0.00,WUHU215HW,2013-05-10 15:13:00,
2013-05-10 10:14:00,49.8,45.1,30.04,North,0,7.1,7.1,84,0.00,,,0.00,WUHU215HW,2013-05-10 15:14:00,
2013-05-10 10:17:00,49.6,45.0,30.04,North,0,7.1,7.1,84,0.00,,,0.00,WUHU215HW,2013-05-10 15:17:00,
2013-05-10 10:18:00,49.6,45.0,30.04,NNE,23,3.3,7.1,84,0.00,,,0.00,WUHU215HW,2013-05-10 15:18:00,
2013-05-10 10:19:00,49.6,44.9,30.04,NNE,23,3.3,7.1,84,0.00,,,0.00,WUHU215HW,2013-05-10 15:19:00,
2013-05-10 10:22:00,49.4,44.8,30.04,NNE,23,0.0,7.1,84,0.00,,,0.00,WUHU215HW,2013-05-10 15:22:00,
2013-05-10 10:23:00,49.4,44.4,30.04,NNE,23,2.6,7.1,83,0.00,,,0.00,WUHU215HW,2013-05-10 15:23:00,
2013-05-10 10:27:00,49.5,44.6,30.04,NNW,338,3.3,3.3,83,0.00,,,0.00,WUHU215HW,2013-05-10 15:27:00,
2013-05-10 10:28:00,49.5,44.5,30.04,NNW,338,3.3,3.3,83,0.00,,,0.00,WUHU215HW,2013-05-10 15:28:00,
2013-05-10 10:33:00,49.5,44.5,30.04,North,0,6.0,6.0,83,0.00,,,0.00,WUHU215HW,2013-05-10 15:33:00,
2013-05-10 10:34:00,49.4,44.5,30.04,North,0,6.0,6.0,83,0.00,,,0.00,WUHU215HW,2013-05-10 15:34:00,
2013-05-10 10:36:00,49.4,44.4,30.04,NNW,347,4.7,6.0,83,0.00,,,0.00,WUHU215HW,2013-05-10 15:36:00,
2013-05-10 10:37:00,49.3,44.4,30.04,NNW,338,4.2,6.0,83,0.00,,,0.00,WUHU215HW,2013-05-10 15:37:00,
2013-05-10 10:40:00,49.4,44.2,30.04,NNW,338,5.8,6.0,82,0.00,,,0.00,WUHU215HW,2013-05-10 15:40:00,
2013-05-10 10:41:00,49.4,44.1,30.04,NNW,338,5.8,6.0,82,0.00,,,0.00,WUHU215HW,2013-05-10 15:41:00,
2013-05-10 10:42:00,49.3,44.1,30.04,NNW,338,5.8,6.0,82,0.00,,,0.00,WUHU215HW,2013-05-10 15:42:00,
2013-05-10 10:44:00,49.2,44.0,30.04,NNW,338,5.8,6.0,82,0.00,,,0.00,WUHU215HW,2013-05-10 15:44:00,
2013-05-10 10:45:00,49.2,44.0,30.04,NNW,338,5.8,5.8,82,0.00,,,0.00,WUHU215HW,2013-05-10 15:45:00,
2013-05-10 10:47:00,49.3,44.1,30.04,NNW,338,0.6,5.8,82,0.00,,,0.00,WUHU215HW,2013-05-10 15:47:00,
2013-05-10 10:52:00,49.5,44.2,30.04,NNE,23,4.9,5.8,82,0.00,,,0.00,WUHU215HW,2013-05-10 15:52:00,
2013-05-10 10:53:00,49.6,44.4,30.04,NNE,23,4.9,5.8,82,0.00,,,0.00,WUHU215HW,2013-05-10 15:53:00,
2013-05-10 10:54:00,49.6,44.3,30.04,NNE,23,4.9,4.9,82,0.00,,,0.00,WUHU215HW,2013-05-10 15:54:00,
2013-05-10 10:56:00,49.5,44.0,30.04,NNW,346,1.6,4.9,81,0.00,,,0.00,WUHU215HW,2013-05-10 15:56:00,
2013-05-10 10:58:00,49.5,43.9,30.04,West,270,1.5,4.9,81,0.00,,,0.00,WUHU215HW,2013-05-10 15:58:00,
2013-05-10 11:01:00,49.6,44.0,30.04,NW,315,6.2,6.2,81,0.00,,,0.00,WUHU215HW,2013-05-10 16:01:00,
2013-05-10 11:02:00,49.5,44.0,30.04,NW,315,6.2,6.2,81,0.00,,,0.00,WUHU215HW,2013-05-10 16:02:00,
2013-05-10 11:03:00,49.5,43.9,30.04,NW,315,6.2,6.2,81,0.00,,,0.00,WUHU215HW,2013-05-10 16:03:00,
2013-05-10 11:04:00,49.5,43.9,30.04,NW,315,4.8,6.2,81,0.00,,,0.00,WUHU215HW,2013-05-10 16:04:00,
2013-05-10 11:06:00,49.4,43.8,30.04,NW,315,2.0,6.2,81,0.00,,,0.00,WUHU215HW,2013-05-10 16:06:00,
2013-05-10 11:09:00,49.3,43.8,30.04,NNW,327,0.9,6.2,81,0.00,,,0.00,WUHU215HW,2013-05-10 16:09:00,
2013-05-10 11:10:00,49.5,43.6,30.04,WSW,248,0.6,6.2,80,0.00,,,0.00,WUHU215HW,2013-05-10 16:10:00,
2013-05-10 11:11:00,49.5,43.6,30.04,WSW,248,0.6,6.2,80,0.00,,,0.00,WUHU215HW,2013-05-10 16:11:00,
2013-05-10 11:12:00,49.4,43.5,30.04,NNE,23,3.3,6.2,80,0.00,,,0.00,WUHU215HW,2013-05-10 16:12:00,
2013-05-10 11:14:00,49.6,43.7,30.04,NE,45,5.1,5.1,80,0.00,,,0.00,WUHU215HW,2013-05-10 16:14:00,
2013-05-10 11:15:00,49.5,43.7,30.04,NE,45,5.1,5.1,80,0.00,,,0.00,WUHU215HW,2013-05-10 16:15:00,
2013-05-10 11:17:00,49.5,43.6,30.04,NNE,17,4.2,5.1,80,0.00,,,0.00,WUHU215HW,2013-05-10 16:17:00,
2013-05-10 11:19:00,49.7,43.8,30.04,North,0,4.0,5.1,80,0.00,,,0.00,WUHU215HW,2013-05-10 16:19:00,
2013-05-10 11:20:00,49.7,43.8,30.04,North,357,2.9,5.1,80,0.00,,,0.00,WUHU215HW,2013-05-10 16:20:00,
2013-05-10 11:21:00,49.7,43.8,30.04,North,351,1.9,5.1,80,0.00,,,0.00,WUHU215HW,2013-05-10 16:21:00,
2013-05-10 11:22:00,49.6,43.8,30.04,NNW,338,1.1,5.1,80,0.00,,,0.00,WUHU215HW,2013-05-10 16:22:00,
2013-05-10 11:26:00,50.2,44.0,30.04,NNW,338,1.1,4.2,79,0.00,,,0.00,WUHU215HW,2013-05-10 16:26:00,
2013-05-10 11:27:00,50.6,44.1,30.04,NNW,338,7.1,7.1,78,0.00,,,0.00,WUHU215HW,2013-05-10 16:27:00,
2013-05-10 11:28:00,50.6,44.0,30.04,NNW,338,7.1,7.1,78,0.00,,,0.00,WUHU215HW,2013-05-10 16:28:00,
2013-05-10 11:31:00,50.7,44.2,30.04,NNW,343,5.3,7.1,78,0.00,,,0.00,WUHU215HW,2013-05-10 16:31:00,
2013-05-10 11:32:00,50.7,44.1,30.04,North,354,3.6,7.1,78,0.00,,,0.00,WUHU215HW,2013-05-10 16:32:00,
2013-05-10 11:33:00,50.7,44.1,30.04,NNE,23,4.2,7.1,78,0.00,,,0.00,WUHU215HW,2013-05-10 16:33:00,
2013-05-10 11:35:00,50.6,44.1,30.04,NNE,23,4.2,7.1,78,0.00,,,0.00,WUHU215HW,2013-05-10 16:35:00,
2013-05-10 11:37:00,50.9,44.3,30.04,NNE,30,3.0,7.1,78,0.00,,,0.00,WUHU215HW,2013-05-10 16:37:00,
2013-05-10 11:38:00,50.9,44.3,30.04,NE,45,2.0,7.1,78,0.00,,,0.00,WUHU215HW,2013-05-10 16:38:00,
2013-05-10 11:40:00,51.2,44.7,30.04,NE,45,2.0,7.1,78,0.00,,,0.00,WUHU215HW,2013-05-10 16:40:00,
2013-05-10 11:41:00,51.2,44.6,30.04,WNW,293,0.0,4.2,78,0.00,,,0.00,WUHU215HW,2013-05-10 16:41:00,
2013-05-10 11:42:00,51.7,44.8,30.04,NE,45,2.4,4.2,77,0.00,,,0.00,WUHU215HW,2013-05-10 16:42:00,
2013-05-10 11:44:00,51.7,44.7,30.04,NNE,23,3.5,4.2,77,0.00,,,0.00,WUHU215HW,2013-05-10 16:44:00,
2013-05-10 11:47:00,52.2,45.3,30.04,NNE,23,3.5,3.5,77,0.00,,,0.00,WUHU215HW,2013-05-10 16:47:00,
2013-05-10 11:48:00,52.5,45.2,30.04,NNE,23,3.5,3.5,76,0.00,,,0.00,WUHU215HW,2013-05-10 16:48:00,
2013-05-10 11:50:00,52.9,45.2,30.04,North,10,4.8,7.8,75,0.00,,,0.00,WUHU215HW,2013-05-10 16:50:00,
2013-05-10 11:51:00,52.8,45.2,30.04,North,10,4.7,7.8,75,0.00,,,0.00,WUHU215HW,2013-05-10 16:51:00,
2013-05-10 11:53:00,52.8,45.2,30.04,North,0,4.2,7.8,75,0.00,,,0.00,WUHU215HW,2013-05-10 16:53:00,
2013-05-10 11:56:00,52.8,44.8,30.04,North,0,4.2,7.8,74,0.00,,,0.00,WUHU215HW,2013-05-10 16:56:00,
2013-05-10 11:57:00,53.2,45.2,30.04,North,0,3.4,7.8,74,0.00,,,0.00,WUHU215HW,2013-05-10 16:57:00,
2013-05-10 11:59:00,53.2,45.2,30.04,North,0,1.7,7.8,74,0.00,,,0.00,WUHU215HW,2013-05-10 16:59:00,
2013-05-10 12:00:00,53.2,45.2,30.04,North,0,1.7,4.2,74,0.00,,,0.00,WUHU215HW,2013-05-10 17:00:00,
2013-05-10 12:01:00,53.4,45.4,30.04,WNW,293,0.0,4.2,74,0.00,,,0.00,WUHU215HW,2013-05-10 17:01:00,
2013-05-10 12:02:00,53.4,45.4,30.04,WNW,293,0.0,4.2,74,0.00,,,0.00,WUHU215HW,2013-05-10 17:02:00,
2013-05-10 12:03:00,53.8,45.4,30.04,WNW,293,0.0,4.2,73,0.00,,,0.00,WUHU215HW,2013-05-10 17:03:00,
2013-05-10 12:07:00,53.7,45.0,30.04,NW,315,3.3,3.3,72,0.00,,,0.00,WUHU215HW,2013-05-10 17:07:00,
2013-05-10 12:08:00,53.7,45.0,30.04,NW,315,3.3,3.3,72,0.00,,,0.00,WUHU215HW,2013-05-10 17:08:00,
2013-05-10 12:11:00,54.0,45.3,30.04,North,0,7.3,7.3,72,0.00,,,0.00,WUHU215HW,2013-05-10 17:11:00,
2013-05-10 12:12:00,54.2,45.5,30.04,North,0,7.3,7.3,72,0.00,,,0.00,WUHU215HW,2013-05-10 17:12:00,
2013-05-10 12:14:00,54.4,45.6,30.04,North,0,7.3,7.3,72,0.00,,,0.00,WUHU215HW,2013-05-10 17:14:00,
2013-05-10 12:18:00,55.0,45.9,30.04,NNE,23,3.3,7.3,71,0.00,,,0.00,WUHU215HW,2013-05-10 17:18:00,
2013-05-10 12:19:00,55.0,45.9,30.04,NNE,23,3.3,7.3,71,0.00,,,0.00,WUHU215HW,2013-05-10 17:19:00,
2013-05-10 12:21:00,55.6,46.5,30.04,North,0,7.8,7.8,71,0.00,,,0.00,WUHU215HW,2013-05-10 17:21:00,
2013-05-10 12:22:00,55.6,46.5,30.04,North,0,7.8,7.8,71,0.00,,,0.00,WUHU215HW,2013-05-10 17:22:00,
2013-05-10 12:26:00,56.1,46.2,30.04,North,0,3.0,7.8,69,0.00,,,0.00,WUHU215HW,2013-05-10 17:26:00,
2013-05-10 12:27:00,56.3,46.4,30.04,North,0,6.2,7.8,69,0.00,,,0.00,WUHU215HW,2013-05-10 17:27:00,
2013-05-10 12:28:00,56.3,46.4,30.04,North,0,6.2,7.8,69,0.00,,,0.00,WUHU215HW,2013-05-10 17:28:00,
2013-05-10 12:31:00,56.5,46.6,30.04,NNE,23,4.0,7.8,69,0.00,,,0.00,WUHU215HW,2013-05-10 17:31:00,
2013-05-10 12:32:00,56.5,46.6,30.04,NNE,23,4.0,7.8,69,0.00,,,0.00,WUHU215HW,2013-05-10 17:32:00,
2013-05-10 12:34:00,56.6,46.7,30.04,NNE,23,4.9,7.8,69,0.00,,,0.00,WUHU215HW,2013-05-10 17:34:00,
2013-05-10 12:37:00,57.0,46.7,30.04,NNE,23,2.6,6.2,68,0.00,,,0.00,WUHU215HW,2013-05-10 17:37:00,
2013-05-10 12:40:00,57.0,46.7,30.04,West,270,0.0,4.9,68,0.00,,,0.00,WUHU215HW,2013-05-10 17:40:00,
2013-05-10 12:42:00,57.0,46.7,30.04,West,270,0.0,4.9,68,0.00,,,0.00,WUHU215HW,2013-05-10 17:42:00,
2013-05-10 12:44:00,57.7,46.6,30.04,NNE,23,2.6,4.9,66,0.00,,,0.00,WUHU215HW,2013-05-10 17:44:00,
2013-05-10 12:46:00,57.7,46.6,30.04,NNE,23,2.6,2.6,66,0.00,,,0.00,WUHU215HW,2013-05-10 17:46:00,
2013-05-10 12:47:00,57.7,46.6,30.04,NNE,23,2.6,2.6,66,0.00,,,0.00,WUHU215HW,2013-05-10 17:47:00,
2013-05-10 12:51:00,58.2,47.0,30.04,North,0,1.5,2.6,66,0.00,,,0.00,WUHU215HW,2013-05-10 17:51:00,
2013-05-10 12:52:00,58.2,47.0,30.04,WSW,248,0.0,2.6,66,0.00,,,0.00,WUHU215HW,2013-05-10 17:52:00,
2013-05-10 12:53:00,58.5,47.3,30.04,West,270,1.1,2.6,66,0.00,,,0.00,WUHU215HW,2013-05-10 17:53:00,
2013-05-10 12:54:00,58.5,47.3,30.04,West,270,1.1,2.6,66,0.00,,,0.00,WUHU215HW,2013-05-10 17:54:00,
2013-05-10 12:56:00,58.5,46.9,30.04,NNE,23,2.0,2.6,65,0.00,,,0.00,WUHU215HW,2013-05-10 17:56:00,
2013-05-10 12:58:00,59.1,47.5,30.04,NW,315,7.1,7.1,65,0.00,,,0.00,WUHU215HW,2013-05-10 17:58:00,
2013-05-10 12:59:00,59.4,47.8,30.04,NW,315,7.1,7.1,65,0.00,,,0.00,WUHU215HW,2013-05-10 17:59:00,
2013-05-10 13:01:00,59.8,47.8,30.04,South,180,0.0,7.1,64,0.00,,,0.00,WUHU215HW,2013-05-10 18:01:00,
2013-05-10 13:02:00,59.9,47.8,30.04,South,180,0.0,7.1,64,0.00,,,0.00,WUHU215HW,2013-05-10 18:02:00,
2013-05-10 13:04:00,60.3,48.2,30.04,NNE,23,6.0,7.1,64,0.00,,,0.00,WUHU215HW,2013-05-10 18:04:00,
2013-05-10 13:07:00,60.4,47.9,30.04,NNE,23,2.9,7.1,63,0.00,,,0.00,WUHU215HW,2013-05-10 18:07:00,
2013-05-10 13:08:00,60.4,47.9,30.04,NNE,23,2.9,7.1,63,0.00,,,0.00,WUHU215HW,2013-05-10 18:08:00,
2013-05-10 13:10:00,60.4,47.9,30.04,West,270,0.0,6.0,63,0.00,,,0.00,WUHU215HW,2013-05-10 18:10:00,
2013-05-10 13:13:00,61.1,48.5,30.04,West,270,0.0,6.0,63,0.00,,,0.00,WUHU215HW,2013-05-10 18:13:00,
2013-05-10 13:14:00,61.3,48.7,30.04,NNW,338,1.7,6.0,63,0.00,,,0.00,WUHU215HW,2013-05-10 18:14:00,
2013-05-10 13:15:00,61.3,48.8,30.04,NNW,338,1.7,2.9,63,0.00,,,0.00,WUHU215HW,2013-05-10 18:15:00,
2013-05-10 13:20:00,61.9,48.4,30.04,NNE,23,1.3,1.7,61,0.00,,,0.00,WUHU215HW,2013-05-10 18:20:00,
2013-05-10 13:21:00,62.1,48.2,30.04,NNE,23,1.3,1.7,60,0.00,,,0.00,WUHU215HW,2013-05-10 18:21:00,
2013-05-10 13:22:00,62.1,48.2,30.04,NNE,23,1.3,1.7,60,0.00,,,0.00,WUHU215HW,2013-05-10 18:22:00,
2013-05-10 13:23:00,62.2,48.2,30.04,NNE,23,1.3,1.7,60,0.00,,,0.00,WUHU215HW,2013-05-10 18:23:00,
2013-05-10 13:27:00,62.4,48.5,30.04,NNE,23,7.1,7.1,60,0.00,,,0.00,WUHU215HW,2013-05-10 18:27:00,
2013-05-10 13:28:00,62.4,48.5,30.04,NNE,23,7.1,7.1,60,0.00,,,0.00,WUHU215HW,2013-05-10 18:28:00,
2013-05-10 13:29:00,62.5,48.5,30.04,NNE,23,7.1,7.1,60,0.00,,,0.00,WUHU215HW,2013-05-10 18:29:00,
2013-05-10 13:32:00,62.6,48.7,30.04,NNE,23,4.6,7.1,60,0.00,,,0.00,WUHU215HW,2013-05-10 18:32:00,
2013-05-10 13:34:00,62.7,48.3,30.04,NNE,23,4.6,7.1,59,0.00,,,0.00,WUHU215HW,2013-05-10 18:34:00,
2013-05-10 13:36:00,62.7,48.3,30.04,NNE,23,5.8,7.1,59,0.00,,,0.00,WUHU215HW,2013-05-10 18:36:00,
2013-05-10 13:37:00,62.7,48.3,30.04,NNE,23,5.8,7.1,59,0.00,,,0.00,WUHU215HW,2013-05-10 18:37:00,
2013-05-10 13:38:00,62.8,48.4,30.04,NNE,23,5.8,7.1,59,0.00,,,0.00,WUHU215HW,2013-05-10 18:38:00,
2013-05-10 13:41:00,62.8,48.4,30.04,NNW,338,1.5,5.8,59,0.00,,,0.00,WUHU215HW,2013-05-10 18:41:00,
2013-05-10 13:43:00,62.9,48.5,30.04,NNW,338,1.5,5.8,59,0.00,,,0.00,WUHU215HW,2013-05-10 18:43:00,
2013-05-10 13:47:00,63.6,49.1,30.04,NNE,23,4.4,4.4,59,0.00,,,0.00,WUHU215HW,2013-05-10 18:47:00,
2013-05-10 13:48:00,63.6,48.7,30.04,North,0,0.0,4.4,58,0.00,,,0.00,WUHU215HW,2013-05-10 18:48:00,
2013-05-10 13:49:00,63.6,48.7,30.04,North,0,0.0,4.4,58,0.00,,,0.00,WUHU215HW,2013-05-10 18:49:00,
2013-05-10 13:50:00,64.0,49.0,30.04,NNE,23,5.8,5.8,58,0.00,,,0.00,WUHU215HW,2013-05-10 18:50:00,
2013-05-10 13:52:00,64.2,49.3,30.04,NNE,23,5.8,5.8,58,0.00,,,0.00,WUHU215HW,2013-05-10 18:52:00,
2013-05-10 13:53:00,64.3,49.3,30.04,NNE,15,5.5,5.8,58,0.00,,,0.00,WUHU215HW,2013-05-10 18:53:00,
2013-05-10 13:58:00,64.6,49.1,30.04,NNW,338,1.1,5.8,57,0.00,,,0.00,WUHU215HW,2013-05-10 18:58:00,
2013-05-10 13:59:00,64.8,49.8,30.04,North,0,3.3,5.8,58,0.00,,,0.00,WUHU215HW,2013-05-10 18:59:00,
2013-05-10 14:00:00,64.9,49.9,30.04,North,0,3.3,5.8,58,0.00,,,0.00,WUHU215HW,2013-05-10 19:00:00,
2013-05-10 14:05:00,65.5,49.0,30.04,NE,46,2.3,3.5,55,0.00,,,0.00,WUHU215HW,2013-05-10 19:05:00,
2013-05-10 14:06:00,65.5,49.1,30.04,NE,50,1.1,3.5,55,0.00,,,0.00,WUHU215HW,2013-05-10 19:06:00,
2013-05-10 14:09:00,65.8,49.8,30.04,North,0,3.8,3.8,56,0.00,,,0.00,WUHU215HW,2013-05-10 19:09:00,
2013-05-10 14:10:00,65.9,49.9,30.04,North,0,3.8,3.8,56,0.00,,,0.00,WUHU215HW,2013-05-10 19:10:00,
2013-05-10 14:11:00,65.9,49.9,30.04,North,0,3.8,3.8,56,0.00,,,0.00,WUHU215HW,2013-05-10 19:11:00,
2013-05-10 14:13:00,66.2,49.6,30.04,North,0,3.8,3.8,55,0.00,,,0.00,WUHU215HW,2013-05-10 19:13:00,
2013-05-10 14:14:00,66.0,49.0,30.04,NE,45,0.0,3.8,54,0.00,,,0.00,WUHU215HW,2013-05-10 19:14:00,
2013-05-10 14:16:00,66.3,49.7,30.04,WNW,293,0.0,3.8,55,0.00,,,0.00,WUHU215HW,2013-05-10 19:16:00,
2013-05-10 14:19:00,66.4,49.3,30.04,NNE,23,0.0,3.8,54,0.00,,,0.00,WUHU215HW,2013-05-10 19:19:00,
2013-05-10 14:20:00,66.6,49.6,30.04,NNE,23,0.0,3.8,54,0.00,,,0.00,WUHU215HW,2013-05-10 19:20:00,
2013-05-10 14:25:00,67.3,49.7,30.04,NW,315,0.0,0.0,53,0.00,,,0.00,WUHU215HW,2013-05-10 19:25:00,
2013-05-10 14:27:00,67.4,49.7,30.04,NW,315,0.8,0.8,53,0.00,,,0.00,WUHU215HW,2013-05-10 19:27:00,
2013-05-10 14:28:00,67.4,49.8,30.04,NW,315,0.8,0.8,53,0.00,,,0.00,WUHU215HW,2013-05-10 19:28:00,
2013-05-10 14:29:00,67.9,49.7,30.04,NNE,23,5.5,5.5,52,0.00,,,0.00,WUHU215HW,2013-05-10 19:29:00,
2013-05-10 14:30:00,67.9,49.7,30.04,NNE,23,5.5,5.5,52,0.00,,,0.00,WUHU215HW,2013-05-10 19:30:00,
2013-05-10 14:33:00,68.1,49.9,30.04,North,11,2.3,5.5,52,0.00,,,0.00,WUHU215HW,2013-05-10 19:33:00,
2013-05-10 14:34:00,68.2,49.9,30.04,WSW,248,1.3,5.5,52,0.00,,,0.00,WUHU215HW,2013-05-10 19:34:00,
2013-05-10 14:35:00,68.6,49.8,30.04,NNW,338,3.3,5.5,51,0.00,,,0.00,WUHU215HW,2013-05-10 19:35:00,
2013-05-10 14:36:00,68.6,49.8,30.04,NNW,338,3.3,5.5,51,0.00,,,0.00,WUHU215HW,2013-05-10 19:36:00,
2013-05-10 14:39:00,69.0,49.6,30.04,West,270,0.0,5.5,50,0.00,,,0.00,WUHU215HW,2013-05-10 19:39:00,
2013-05-10 14:41:00,69.0,49.7,30.04,West,270,0.0,5.5,50,0.00,,,0.00,WUHU215HW,2013-05-10 19:41:00,
2013-05-10 14:45:00,69.5,49.5,30.04,NW,315,0.0,3.3,49,0.00,,,0.00,WUHU215HW,2013-05-10 19:45:00,
2013-05-10 14:46:00,69.9,50.5,30.04,NW,315,0.0,3.3,50,0.00,,,0.00,WUHU215HW,2013-05-10 19:46:00,
2013-05-10 14:47:00,70.0,50.6,30.04,NW,315,0.0,0.0,50,0.00,,,0.00,WUHU215HW,2013-05-10 19:47:00,
2013-05-10 14:49:00,70.3,50.8,30.04,WNW,293,0.0,0.0,50,0.00,,,0.00,WUHU215HW,2013-05-10 19:49:00,
2013-05-10 14:52:00,70.6,49.4,30.04,NNE,28,5.3,6.0,47,0.00,,,0.00,WUHU215HW,2013-05-10 19:52:00,
2013-05-10 14:53:00,70.7,49.4,30.04,NE,35,4.6,6.0,47,0.00,,,0.00,WUHU215HW,2013-05-10 19:53:00,
2013-05-10 14:54:00,70.7,49.5,30.04,NE,45,4.0,6.0,47,0.00,,,0.00,WUHU215HW,2013-05-10 19:54:00,
2013-05-10 14:56:00,70.4,49.2,30.04,NNE,31,3.6,6.0,47,0.00,,,0.00,WUHU215HW,2013-05-10 19:56:00,
2013-05-10 14:59:00,70.5,48.7,30.04,South,180,7.8,7.8,46,0.00,,,0.00,WUHU215HW,2013-05-10 19:59:00,
2013-05-10 15:02:00,70.7,49.4,30.04,South,180,7.8,7.8,47,0.00,,,0.00,WUHU215HW,2013-05-10 20:02:00,
2013-05-10 15:03:00,70.9,49.1,30.04,South,180,4.2,7.8,46,0.00,,,0.00,WUHU215HW,2013-05-10 20:03:00,
2013-05-10 15:04:00,70.9,49.1,30.04,North,0,2.9,7.8,46,0.00,,,0.00,WUHU215HW,2013-05-10 20:04:00,
2013-05-10 15:05:00,71.0,49.2,30.04,North,0,2.9,7.8,46,0.00,,,0.00,WUHU215HW,2013-05-10 20:05:00,
2013-05-10 15:06:00,71.0,48.6,30.04,NE,45,4.6,7.8,45,0.00,,,0.00,WUHU215HW,2013-05-10 20:06:00,
2013-05-10 15:09:00,70.5,48.7,30.04,NE,45,4.6,7.8,46,0.00,,,0.00,WUHU215HW,2013-05-10 20:09:00,
2013-05-10 15:10:00,70.5,48.7,30.04,NE,39,4.1,7.8,46,0.00,,,0.00,WUHU215HW,2013-05-10 20:10:00,
2013-05-10 15:11:00,70.6,48.8,30.04,NNE,32,3.7,7.8,46,0.00,,,0.00,WUHU215HW,2013-05-10 20:11:00,
2013-05-10 15:13:00,70.5,48.7,30.04,North,0,3.8,4.6,46,0.00,,,0.00,WUHU215HW,2013-05-10 20:13:00,
2013-05-10 15:14:00,70.5,49.3,30.04,NNW,338,7.8,7.8,47,0.00,,,0.00,WUHU215HW,2013-05-10 20:14:00,
2013-05-10 15:18:00,70.7,48.9,30.04,NNW,338,2.9,7.8,46,0.00,,,0.00,WUHU215HW,2013-05-10 20:18:00,
2013-05-10 15:19:00,70.7,48.9,30.04,NW,318,2.0,7.8,46,0.00,,,0.00,WUHU215HW,2013-05-10 20:19:00,
2013-05-10 15:20:00,70.8,49.0,30.04,WSW,248,2.0,7.8,46,0.00,,,0.00,WUHU215HW,2013-05-10 20:20:00,
2013-05-10 15:21:00,70.8,49.0,30.04,WSW,248,2.0,7.8,46,0.00,,,0.00,WUHU215HW,2013-05-10 20:21:00,
2013-05-10 15:22:00,70.9,49.1,30.04,WSW,248,2.0,7.8,46,0.00,,,0.00,WUHU215HW,2013-05-10 20:22:00,
2013-05-10 15:27:00,71.1,48.7,30.04,North,0,4.6,4.6,45,0.00,,,0.00,WUHU215HW,2013-05-10 20:27:00,
2013-05-10 15:28:00,71.2,48.7,30.04,North,0,4.6,4.6,45,0.00,,,0.00,WUHU215HW,2013-05-10 20:28:00,
2013-05-10 15:29:00,71.2,49.4,30.04,North,358,3.2,4.6,46,0.00,,,0.00,WUHU215HW,2013-05-10 20:29:00,
2013-05-10 15:31:00,71.3,49.5,30.04,NW,315,0.4,4.6,46,0.00,,,0.00,WUHU215HW,2013-05-10 20:31:00,
2013-05-10 15:35:00,71.5,49.7,30.04,NW,315,0.4,4.6,46,0.00,,,0.00,WUHU215HW,2013-05-10 20:35:00,
2013-05-10 15:36:00,71.6,49.7,30.04,North,0,5.1,5.1,46,0.00,,,0.00,WUHU215HW,2013-05-10 20:36:00,
2013-05-10 15:38:00,71.7,49.2,30.04,North,0,5.1,5.1,45,0.00,,,0.00,WUHU215HW,2013-05-10 20:38:00,
2013-05-10 15:40:00,71.6,49.1,30.04,NNE,23,7.1,7.1,45,0.00,,,0.00,WUHU215HW,2013-05-10 20:40:00,
2013-05-10 15:42:00,71.3,49.4,30.04,NNE,23,7.1,7.1,46,0.00,,,0.00,WUHU215HW,2013-05-10 20:42:00,
2013-05-10 15:43:00,71.3,49.5,30.04,NNW,338,0.0,7.1,46,0.00,,,0.00,WUHU215HW,2013-05-10 20:43:00,
2013-05-10 15:44:00,71.6,49.7,30.04,SSE,158,1.1,7.1,46,0.00,,,0.00,WUHU215HW,2013-05-10 20:44:00,
2013-05-10 15:45:00,71.6,49.8,30.04,SSE,158,1.1,7.1,46,0.00,,,0.00,WUHU215HW,2013-05-10 20:45:00,
2013-05-10 15:48:00,72.4,50.4,30.04,North,0,0.0,7.1,46,0.00,,,0.00,WUHU215HW,2013-05-10 20:48:00,
2013-05-10 15:49:00,72.4,50.5,30.04,North,0,0.0,7.1,46,0.00,,,0.00,WUHU215HW,2013-05-10 20:49:00,
2013-05-10 15:50:00,72.8,50.8,30.04,North,0,0.0,7.1,46,0.00,,,0.00,WUHU215HW,2013-05-10 20:50:00,
2013-05-10 15:51:00,72.8,50.9,30.04,North,0,0.0,1.1,46,0.00,,,0.00,WUHU215HW,2013-05-10 20:51:00,
2013-05-10 15:54:00,73.4,50.7,30.04,NW,315,2.6,2.6,45,0.00,,,0.00,WUHU215HW,2013-05-10 20:54:00,
2013-05-10 15:56:00,73.5,50.8,30.04,NW,306,2.1,2.6,45,0.00,,,0.00,WUHU215HW,2013-05-10 20:56:00,
2013-05-10 15:57:00,73.5,51.5,30.04,WNW,293,1.6,2.6,46,0.00,,,0.00,WUHU215HW,2013-05-10 20:57:00,
2013-05-10 15:58:00,73.6,51.5,30.04,West,270,1.3,2.6,46,0.00,,,0.00,WUHU215HW,2013-05-10 20:58:00,
2013-05-10 16:02:00,74.0,51.3,30.04,ESE,113,2.6,2.6,45,0.00,,,0.00,WUHU215HW,2013-05-10 21:02:00,
2013-05-10 16:03:00,73.9,50.5,30.04,NE,45,6.4,6.4,44,0.00,,,0.00,WUHU215HW,2013-05-10 21:03:00,
2013-05-10 16:04:00,73.9,50.6,30.04,NE,45,6.4,6.4,44,0.00,,,0.00,WUHU215HW,2013-05-10 21:04:00,
2013-05-10 16:07:00,73.5,50.2,30.04,North,352,1.9,6.4,44,0.00,,,0.00,WUHU215HW,2013-05-10 21:07:00,
2013-05-10 16:08:00,73.5,50.2,30.04,NNW,339,1.4,6.4,44,0.00,,,0.00,WUHU215HW,2013-05-10 21:08:00,
2013-05-10 16:10:00,73.3,50.6,30.04,NW,315,1.1,6.4,45,0.00,,,0.00,WUHU215HW,2013-05-10 21:10:00,
2013-05-10 16:11:00,73.0,50.4,30.04,NE,45,0.0,6.4,45,0.00,,,0.00,WUHU215HW,2013-05-10 21:11:00,
2013-05-10 16:13:00,72.9,50.3,30.04,NE,45,0.0,6.4,45,0.00,,,0.00,WUHU215HW,2013-05-10 21:13:00,
2013-05-10 16:15:00,72.6,50.6,30.04,SW,225,7.3,7.3,46,0.00,,,0.00,WUHU215HW,2013-05-10 21:15:00,
2013-05-10 16:16:00,72.6,50.6,30.04,SW,225,7.3,7.3,46,0.00,,,0.00,WUHU215HW,2013-05-10 21:16:00,
2013-05-10 16:18:00,72.5,51.1,30.04,North,0,0.0,7.3,47,0.00,,,0.00,WUHU215HW,2013-05-10 21:18:00,
2013-05-10 16:19:00,72.4,51.1,30.04,North,0,0.0,7.3,47,0.00,,,0.00,WUHU215HW,2013-05-10 21:19:00,
2013-05-10 16:20:00,72.4,50.4,30.04,North,0,0.0,7.3,46,0.00,,,0.00,WUHU215HW,2013-05-10 21:20:00,
2013-05-10 16:22:00,72.3,50.3,30.04,WSW,248,0.0,7.3,46,0.00,,,0.00,WUHU215HW,2013-05-10 21:22:00,
2013-05-10 16:24:00,72.2,50.2,30.04,NW,315,0.0,7.3,46,0.00,,,0.00,WUHU215HW,2013-05-10 21:24:00,
2013-05-10 16:26:00,72.1,50.1,30.04,West,270,0.0,0.0,46,0.00,,,0.00,WUHU215HW,2013-05-10 21:26:00,
2013-05-10 16:28:00,72.0,49.4,30.04,NNW,338,0.0,0.0,45,0.00,,,0.00,WUHU215HW,2013-05-10 21:28:00,
2013-05-10 16:32:00,71.4,49.5,30.04,North,0,13.6,13.6,46,0.00,,,0.00,WUHU215HW,2013-05-10 21:32:00,
2013-05-10 16:33:00,71.3,48.8,30.04,North,0,9.7,13.6,45,0.00,,,0.00,WUHU215HW,2013-05-10 21:33:00,
2013-05-10 16:34:00,71.3,48.8,30.04,North,0,5.9,13.6,45,0.00,,,0.00,WUHU215HW,2013-05-10 21:34:00,
2013-05-10 16:38:00,70.6,48.2,30.04,North,0,3.1,13.6,45,0.00,,,0.00,WUHU215HW,2013-05-10 21:38:00,
2013-05-10 16:40:00,70.1,47.7,30.04,North,0,3.1,13.6,45,0.00,,,0.00,WUHU215HW,2013-05-10 21:40:00,
2013-05-10 16:41:00,70.1,47.7,30.04,NW,315,0.0,13.6,45,0.00,,,0.00,WUHU215HW,2013-05-10 21:41:00,
2013-05-10 16:42:00,70.0,48.3,30.04,WSW,248,0.0,13.6,46,0.00,,,0.00,WUHU215HW,2013-05-10 21:42:00,
2013-05-10 16:44:00,69.9,48.8,30.04,WSW,248,4.4,4.4,47,0.00,,,0.00,WUHU215HW,2013-05-10 21:44:00,
2013-05-10 16:45:00,69.9,48.7,30.04,WSW,248,4.4,4.4,47,0.00,,,0.00,WUHU215HW,2013-05-10 21:45:00,
2013-05-10 16:46:00,69.8,48.7,30.04,WSW,248,4.4,4.4,47,0.00,,,0.00,WUHU215HW,2013-05-10 21:46:00,
2013-05-10 16:47:00,69.8,48.7,30.04,WSW,248,4.4,4.4,47,0.00,,,0.00,WUHU215HW,2013-05-10 21:47:00,
2013-05-10 16:48:00,70.0,48.8,30.04,NW,315,5.5,5.5,47,0.00,,,0.00,WUHU215HW,2013-05-10 21:48:00,
2013-05-10 16:51:00,69.8,48.1,30.04,NW,315,5.5,5.5,46,0.00,,,0.00,WUHU215HW,2013-05-10 21:51:00,
2013-05-10 16:52:00,69.8,48.1,30.04,WSW,248,0.0,5.5,46,0.00,,,0.00,WUHU215HW,2013-05-10 21:52:00,
2013-05-10 16:54:00,69.9,48.8,30.04,WSW,248,3.3,5.5,47,0.00,,,0.00,WUHU215HW,2013-05-10 21:54:00,
2013-05-10 16:57:00,69.8,48.1,30.04,WSW,248,1.5,5.5,46,0.00,,,0.00,WUHU215HW,2013-05-10 21:57:00,
2013-05-10 16:58:00,69.8,48.1,30.04,WSW,248,0.6,5.5,46,0.00,,,0.00,WUHU215HW,2013-05-10 21:58:00,
2013-05-10 16:59:00,70.0,48.2,30.04,WSW,248,2.6,5.5,46,0.00,,,0.00,WUHU215HW,2013-05-10 21:59:00,
2013-05-10 17:01:00,69.9,48.2,30.04,WNW,293,3.3,3.3,46,0.00,,,0.00,WUHU215HW,2013-05-10 22:01:00,
2013-05-10 17:02:00,69.9,48.1,30.04,WNW,293,3.3,3.3,46,0.00,,,0.00,WUHU215HW,2013-05-10 22:02:00,
2013-05-10 17:05:00,69.8,48.0,30.04,NE,45,2.6,3.3,46,0.00,,,0.00,WUHU215HW,2013-05-10 22:05:00,
2013-05-10 17:06:00,69.7,48.0,30.04,NE,45,2.6,3.3,46,0.00,,,0.00,WUHU215HW,2013-05-10 22:06:00,
2013-05-10 17:08:00,69.5,47.8,30.04,NNW,338,5.5,5.5,46,0.00,,,0.00,WUHU215HW,2013-05-10 22:08:00,
2013-05-10 17:11:00,69.4,47.7,30.04,NNW,347,4.5,5.5,46,0.00,,,0.00,WUHU215HW,2013-05-10 22:11:00,
2013-05-10 17:12:00,69.4,47.7,30.04,North,2,3.7,5.5,46,0.00,,,0.00,WUHU215HW,2013-05-10 22:12:00,
2013-05-10 17:14:00,69.2,46.9,30.04,NNE,23,3.3,5.5,45,0.00,,,0.00,WUHU215HW,2013-05-10 22:14:00,
2013-05-10 17:17:00,68.9,46.6,30.04,NNE,23,5.3,5.5,45,0.00,,,0.00,WUHU215HW,2013-05-10 22:17:00,
2013-05-10 17:19:00,68.9,47.2,30.04,SSW,203,2.6,5.5,46,0.00,,,0.00,WUHU215HW,2013-05-10 22:19:00,
2013-05-10 17:21:00,68.7,47.1,30.04,SSW,203,2.6,5.3,46,0.00,,,0.00,WUHU215HW,2013-05-10 22:21:00,
2013-05-10 17:24:00,68.7,46.4,30.04,NW,315,0.0,5.3,45,0.00,,,0.00,WUHU215HW,2013-05-10 22:24:00,
2013-05-10 17:25:00,68.7,46.4,30.04,North,0,1.1,5.3,45,0.00,,,0.00,WUHU215HW,2013-05-10 22:25:00,
2013-05-10 17:27:00,68.7,47.0,30.04,North,0,3.1,5.3,46,0.00,,,0.00,WUHU215HW,2013-05-10 22:27:00,
2013-05-10 17:28:00,68.6,47.0,30.04,NNE,23,3.8,3.8,46,0.00,,,0.00,WUHU215HW,2013-05-10 22:28:00,
2013-05-10 17:30:00,68.4,46.2,30.04,NNE,23,3.8,3.8,45,0.00,,,0.00,WUHU215HW,2013-05-10 22:30:00,
2013-05-10 17:33:00,68.2,46.0,30.04,North,357,4.4,6.4,45,0.00,,,0.00,WUHU215HW,2013-05-10 22:33:00,
2013-05-10 17:34:00,68.2,46.0,30.04,NNW,348,2.4,6.4,45,0.00,,,0.00,WUHU215HW,2013-05-10 22:34:00,
2013-05-10 17:35:00,68.2,45.4,30.04,WNW,293,0.8,6.4,44,0.00,,,0.00,WUHU215HW,2013-05-10 22:35:00,
2013-05-10 17:38:00,68.2,45.4,30.04,NW,315,0.2,6.4,44,0.00,,,0.00,WUHU215HW,2013-05-10 22:38:00,
2013-05-10 17:40:00,67.7,45.5,30.04,NNW,338,5.5,6.4,45,0.00,,,0.00,WUHU215HW,2013-05-10 22:40:00,
2013-05-10 17:41:00,67.7,46.2,30.04,NNE,23,7.1,7.1,46,0.00,,,0.00,WUHU215HW,2013-05-10 22:41:00,
2013-05-10 17:43:00,67.7,46.2,30.04,NNE,23,7.1,7.1,46,0.00,,,0.00,WUHU215HW,2013-05-10 22:43:00,
2013-05-10 17:45:00,67.5,46.0,30.04,North,10,5.1,7.1,46,0.00,,,0.00,WUHU215HW,2013-05-10 22:45:00,
2013-05-10 17:47:00,67.3,45.8,30.04,North,0,4.2,7.1,46,0.00,,,0.00,WUHU215HW,2013-05-10 22:47:00,
2013-05-10 17:49:00,67.4,45.8,30.04,North,0,0.0,7.1,46,0.00,,,0.00,WUHU215HW,2013-05-10 22:49:00,
2013-05-10 17:50:00,67.4,46.4,30.04,ENE,68,0.0,7.1,47,0.00,,,0.00,WUHU215HW,2013-05-10 22:50:00,
2013-05-10 17:51:00,67.4,46.4,30.04,ENE,68,0.0,7.1,47,0.00,,,0.00,WUHU215HW,2013-05-10 22:51:00,
2013-05-10 17:52:00,67.4,46.5,30.04,WSW,248,0.0,7.1,47,0.00,,,0.00,WUHU215HW,2013-05-10 22:52:00,
2013-05-10 17:55:00,67.4,46.5,30.04,North,0,0.0,4.2,47,0.00,,,0.00,WUHU215HW,2013-05-10 22:55:00,
2013-05-10 17:56:00,67.7,47.3,30.04,North,0,0.0,0.0,48,0.00,,,0.00,WUHU215HW,2013-05-10 22:56:00,
2013-05-10 17:57:00,67.7,47.3,30.04,NNE,23,4.4,4.4,48,0.00,,,0.00,WUHU215HW,2013-05-10 22:57:00,
2013-05-10 17:58:00,67.7,47.3,30.04,NNE,17,2.9,4.4,48,0.00,,,0.00,WUHU215HW,2013-05-10 22:58:00,
2013-05-10 18:01:00,67.7,46.2,30.04,North,0,1.5,4.4,46,0.00,,,0.00,WUHU215HW,2013-05-10 23:01:00,
2013-05-10 18:03:00,67.8,46.2,30.04,NNE,23,4.9,4.9,46,0.00,,,0.00,WUHU215HW,2013-05-10 23:03:00,
2013-05-10 18:05:00,67.8,46.3,30.04,NNE,17,4.2,4.9,46,0.00,,,0.00,WUHU215HW,2013-05-10 23:05:00,
2013-05-10 18:06:00,67.9,46.3,30.04,North,10,3.6,4.9,46,0.00,,,0.00,WUHU215HW,2013-05-10 23:06:00,
2013-05-10 18:08:00,67.7,46.2,30.04,North,0,3.1,4.9,46,0.00,,,0.00,WUHU215HW,2013-05-10 23:08:00,
2013-05-10 18:09:00,67.7,46.2,30.04,NNW,338,0.0,4.9,46,0.00,,,0.00,WUHU215HW,2013-05-10 23:09:00,
2013-05-10 18:10:00,67.8,46.2,30.04,NNW,338,0.0,4.9,46,0.00,,,0.00,WUHU215HW,2013-05-10 23:10:00,
2013-05-10 18:12:00,67.6,46.1,30.04,NE,45,2.0,4.9,46,0.00,,,0.00,WUHU215HW,2013-05-10 23:12:00,
2013-05-10 18:13:00,67.7,46.1,30.04,NE,45,2.0,4.9,46,0.00,,,0.00,WUHU215HW,2013-05-10 23:13:00,
2013-05-10 18:17:00,67.8,46.2,30.04,NE,45,2.0,2.0,46,0.00,,,0.00,WUHU215HW,2013-05-10 23:17:00,
2013-05-10 18:18:00,67.3,45.8,30.04,NNW,338,1.7,2.0,46,0.00,,,0.00,WUHU215HW,2013-05-10 23:18:00,
2013-05-10 18:19:00,67.3,45.8,30.04,NNW,338,1.7,2.0,46,0.00,,,0.00,WUHU215HW,2013-05-10 23:19:00,
2013-05-10 18:21:00,67.4,46.5,30.04,NNW,338,6.0,6.0,47,0.00,,,0.00,WUHU215HW,2013-05-10 23:21:00,
2013-05-10 18:22:00,67.5,45.9,30.04,NNW,338,6.0,6.0,46,0.00,,,0.00,WUHU215HW,2013-05-10 23:22:00,
2013-05-10 18:26:00,67.6,46.1,30.04,NW,315,0.0,6.0,46,0.00,,,0.00,WUHU215HW,2013-05-10 23:26:00,
2013-05-10 18:27:00,67.6,46.1,30.04,NNE,23,6.9,6.9,46,0.00,,,0.00,WUHU215HW,2013-05-10 23:27:00,
2013-05-10 18:28:00,67.7,46.1,30.04,NNE,16,4.9,6.9,46,0.00,,,0.00,WUHU215HW,2013-05-10 23:28:00,
2013-05-10 18:29:00,67.7,46.2,30.04,NNE,12,4.3,6.9,46,0.00,,,0.00,WUHU215HW,2013-05-10 23:29:00,
2013-05-10 18:31:00,67.8,46.2,30.04,North,0,4.0,6.9,46,0.00,,,0.00,WUHU215HW,2013-05-10 23:31:00,
2013-05-10 18:32:00,67.8,46.3,30.04,North,0,4.0,6.9,46,0.00,,,0.00,WUHU215HW,2013-05-10 23:32:00,
2013-05-10 18:33:00,67.7,46.1,30.04,North,0,4.0,6.9,46,0.00,,,0.00,WUHU215HW,2013-05-10 23:33:00,
2013-05-10 18:36:00,67.8,46.3,30.04,NNW,338,0.0,6.9,46,0.00,,,0.00,WUHU215HW,2013-05-10 23:36:00,
2013-05-10 18:37:00,67.9,46.3,30.04,North,0,4.6,6.9,46,0.00,,,0.00,WUHU215HW,2013-05-10 23:37:00,
2013-05-10 18:40:00,67.8,46.2,30.04,North,0,4.6,4.6,46,0.00,,,0.00,WUHU215HW,2013-05-10 23:40:00,
2013-05-10 18:41:00,67.9,46.3,30.04,NNW,338,3.1,4.6,46,0.00,,,0.00,WUHU215HW,2013-05-10 23:41:00,
2013-05-10 18:43:00,67.7,46.8,30.04,NNW,338,3.1,4.6,47,0.00,,,0.00,WUHU215HW,2013-05-10 23:43:00,
2013-05-10 18:46:00,67.9,46.9,30.04,North,0,2.2,4.6,47,0.00,,,0.00,WUHU215HW,2013-05-10 23:46:00,
2013-05-10 18:47:00,67.9,47.0,30.04,North,0,2.2,4.6,47,0.00,,,0.00,WUHU215HW,2013-05-10 23:47:00,
2013-05-10 18:48:00,68.0,47.0,30.04,NW,315,0.2,4.6,47,0.00,,,0.00,WUHU215HW,2013-05-10 23:48:00,
2013-05-10 18:51:00,68.0,47.0,30.04,NNW,338,3.1,3.1,47,0.00,,,0.00,WUHU215HW,2013-05-10 23:51:00,
2013-05-10 18:53:00,68.1,47.1,30.04,North,351,2.6,3.1,47,0.00,,,0.00,WUHU215HW,2013-05-10 23:53:00,
2013-05-10 18:54:00,68.2,47.2,30.04,North,0,2.4,3.1,47,0.00,,,0.00,WUHU215HW,2013-05-10 23:54:00,
2013-05-10 18:55:00,68.0,47.0,30.04,North,0,2.4,3.1,47,0.00,,,0.00,WUHU215HW,2013-05-10 23:55:00,
2013-05-10 18:59:00,68.2,47.2,30.04,NNE,19,4.7,6.0,47,0.00,,,0.00,WUHU215HW,2013-05-10 23:59:00,
2013-05-10 19:00:00,68.3,47.3,30.04,NNE,13,3.5,6.0,47,0.00,,,0.00,WUHU215HW,2013-05-11 00:00:00,
2013-05-10 19:03:00,68.3,47.2,30.04,NNW,338,0.0,6.0,47,0.00,,,0.00,WUHU215HW,2013-05-11 00:03:00,
2013-05-10 19:05:00,68.4,47.3,30.04,NW,315,0.0,6.0,47,0.00,,,0.00,WUHU215HW,2013-05-11 00:05:00,
2013-05-10 19:06:00,68.4,47.4,30.04,NW,315,0.0,6.0,47,0.00,,,0.00,WUHU215HW,2013-05-11 00:06:00,
2013-05-10 19:08:00,68.5,47.4,30.04,North,0,4.4,6.0,47,0.00,,,0.00,WUHU215HW,2013-05-11 00:08:00,
2013-05-10 19:10:00,68.5,47.4,30.04,North,0,4.4,4.4,47,0.00,,,0.00,WUHU215HW,2013-05-11 00:10:00,
2013-05-10 19:11:00,68.3,47.4,30.04,North,0,0.0,4.4,47,0.00,,,0.00,WUHU215HW,2013-05-11 00:11:00,
2013-05-10 19:12:00,68.3,47.4,30.04,North,0,0.0,4.4,47,0.00,,,0.00,WUHU215HW,2013-05-11 00:12:00,
2013-05-10 19:14:00,68.3,47.4,30.04,SE,135,0.0,4.4,47,0.00,,,0.00,WUHU215HW,2013-05-11 00:14:00,
2013-05-10 19:15:00,68.3,47.4,30.04,SE,135,0.0,4.4,47,0.00,,,0.00,WUHU215HW,2013-05-11 00:15:00,
2013-05-10 19:16:00,68.3,47.4,30.04,ESE,113,0.0,4.4,47,0.00,,,0.00,WUHU215HW,2013-05-11 00:16:00,
2013-05-10 19:19:00,68.3,47.2,30.04,ESE,113,0.0,0.0,47,0.00,,,0.00,WUHU215HW,2013-05-11 00:19:00,
2013-05-10 19:20:00,68.5,47.4,30.04,ESE,113,0.0,0.0,47,0.00,,,0.00,WUHU215HW,2013-05-11 00:20:00,
2013-05-10 19:21:00,68.5,47.4,30.04,ESE,113,0.0,0.0,47,0.00,,,0.00,WUHU215HW,2013-05-11 00:21:00,
2013-05-10 19:23:00,68.9,47.7,30.04,North,0,2.4,2.4,47,0.00,,,0.00,WUHU215HW,2013-05-11 00:23:00,
2013-05-10 19:25:00,68.9,47.7,30.04,North,0,2.4,2.4,47,0.00,,,0.00,WUHU215HW,2013-05-11 00:25:00,
2013-05-10 19:26:00,68.9,47.7,30.04,North,0,0.0,2.4,47,0.00,,,0.00,WUHU215HW,2013-05-11 00:26:00,
2013-05-10 19:27:00,68.9,47.7,30.04,North,0,0.0,2.4,47,0.00,,,0.00,WUHU215HW,2013-05-11 00:27:00,
2013-05-10 19:28:00,68.7,47.0,30.04,NE,45,2.9,2.9,46,0.00,,,0.00,WUHU215HW,2013-05-11 00:28:00,
2013-05-10 19:30:00,68.7,47.0,30.04,NE,45,2.9,2.9,46,0.00,,,0.00,WUHU215HW,2013-05-11 00:30:00,
2013-05-10 19:31:00,68.7,47.0,30.04,NE,45,2.9,2.9,46,0.00,,,0.00,WUHU215HW,2013-05-11 00:31:00,
2013-05-10 19:33:00,68.5,46.8,30.04,North,0,5.5,5.5,46,0.00,,,0.00,WUHU215HW,2013-05-11 00:33:00,
2013-05-10 19:36:00,68.5,46.8,30.04,North,5,2.3,5.5,46,0.00,,,0.00,WUHU215HW,2013-05-11 00:36:00,
2013-05-10 19:38:00,68.5,46.8,30.04,North,0,2.0,5.5,47,0.00,,,0.00,WUHU215HW,2013-05-11 00:38:00,
2013-05-10 19:39:00,68.1,47.1,30.04,North,0,2.0,5.5,47,0.00,,,0.00,WUHU215HW,2013-05-11 00:39:00,
2013-05-10 19:42:00,68.0,46.9,30.04,NNW,346,1.6,5.5,47,0.00,,,0.00,WUHU215HW,2013-05-11 00:42:00,
2013-05-10 19:44:00,68.0,46.9,30.04,NNW,338,1.5,5.5,47,0.00,,,0.00,WUHU215HW,2013-05-11 00:44:00,
2013-05-10 19:45:00,68.0,46.9,30.04,North,0,0.0,2.0,47,0.00,,,0.00,WUHU215HW,2013-05-11 00:45:00,
2013-05-10 19:47:00,67.8,46.7,30.04,North,0,0.0,2.0,47,0.00,,,0.00,WUHU215HW,2013-05-11 00:47:00,
2013-05-10 19:51:00,67.6,47.2,30.04,NNW,338,0.0,1.5,48,0.00,,,0.00,WUHU215HW,2013-05-11 00:51:00,
2013-05-10 19:52:00,67.6,47.2,30.04,NNW,338,0.0,1.5,48,0.00,,,0.00,WUHU215HW,2013-05-11 00:52:00,
2013-05-10 19:53:00,67.6,47.2,30.04,NNW,338,0.0,0.0,48,0.00,,,0.00,WUHU215HW,2013-05-11 00:53:00,
2013-05-10 19:57:00,67.2,46.9,30.04,NNW,338,0.0,0.0,48,0.00,,,0.00,WUHU215HW,2013-05-11 00:57:00,
2013-05-10 19:58:00,67.1,46.7,30.04,NNW,338,0.0,0.0,48,0.00,,,0.00,WUHU215HW,2013-05-11 00:58:00,
2013-05-10 19:59:00,67.1,46.7,30.04,North,0,0.4,0.4,48,0.00,,,0.00,WUHU215HW,2013-05-11 00:59:00,
2013-05-10 20:00:00,67.1,46.7,30.04,North,0,0.4,0.4,48,0.00,,,0.00,WUHU215HW,2013-05-11 01:00:00,
2013-05-10 20:01:00,67.1,46.7,30.04,North,0,0.4,0.4,48,0.00,,,0.00,WUHU215HW,2013-05-11 01:01:00,
2013-05-10 20:04:00,66.7,46.7,30.04,North,0,0.0,0.4,48,0.00,,,0.00,WUHU215HW,2013-05-11 01:04:00,
2013-05-10 20:07:00,66.3,46.7,30.04,North,0,0.0,0.4,49,0.00,,,0.00,WUHU215HW,2013-05-11 01:07:00,
2013-05-10 20:09:00,66.2,46.5,30.04,North,0,0.0,0.4,49,0.00,,,0.00,WUHU215HW,2013-05-11 01:09:00,
2013-05-10 20:10:00,66.2,46.5,30.04,North,0,0.0,0.4,49,0.00,,,0.00,WUHU215HW,2013-05-11 01:10:00,
2013-05-10 20:13:00,66.0,46.5,30.04,North,0,0.0,0.0,49,0.00,,,0.00,WUHU215HW,2013-05-11 01:13:00,
2013-05-10 20:14:00,65.8,46.5,30.04,North,0,0.0,0.0,49,0.00,,,0.00,WUHU215HW,2013-05-11 01:14:00,
2013-05-10 20:16:00,65.4,46.5,30.04,North,0,0.0,0.0,50,0.00,,,0.00,WUHU215HW,2013-05-11 01:16:00,
2013-05-10 20:18:00,65.4,46.4,30.04,North,0,0.0,0.0,50,0.00,,,0.00,WUHU215HW,2013-05-11 01:18:00,
2013-05-10 20:20:00,65.1,46.0,30.04,North,0,0.0,0.0,50,0.00,,,0.00,WUHU215HW,2013-05-11 01:20:00,
2013-05-10 20:22:00,64.9,45.8,30.04,North,0,0.0,0.0,50,0.00,,,0.00,WUHU215HW,2013-05-11 01:22:00,
2013-05-10 20:24:00,64.5,45.9,30.04,North,0,0.0,0.0,51,0.00,,,0.00,WUHU215HW,2013-05-11 01:24:00,
2013-05-10 20:25:00,64.5,45.9,30.04,North,0,0.0,0.0,51,0.00,,,0.00,WUHU215HW,2013-05-11 01:25:00,
2013-05-10 20:27:00,64.4,45.8,30.04,North,0,0.0,0.0,51,0.00,,,0.00,WUHU215HW,2013-05-11 01:27:00,
2013-05-10 20:29:00,64.2,45.6,30.04,North,0,0.0,0.0,51,0.00,,,0.00,WUHU215HW,2013-05-11 01:29:00,
2013-05-10 20:30:00,64.2,45.4,30.04,North,0,0.0,0.0,51,0.00,,,0.00,WUHU215HW,2013-05-11 01:30:00,
2013-05-10 20:31:00,64.0,45.4,30.04,North,0,0.0,0.0,51,0.00,,,0.00,WUHU215HW,2013-05-11 01:31:00,
2013-05-10 20:33:00,63.6,45.6,30.04,North,0,0.0,0.0,52,0.00,,,0.00,WUHU215HW,2013-05-11 01:33:00,
2013-05-10 20:35:00,63.6,45.6,30.04,North,0,0.0,0.0,52,0.00,,,0.00,WUHU215HW,2013-05-11 01:35:00,
2013-05-10 20:36:00,63.6,45.6,30.04,North,0,0.0,0.0,52,0.00,,,0.00,WUHU215HW,2013-05-11 01:36:00,
2013-05-10 20:37:00,63.1,45.6,30.04,North,0,0.0,0.0,52,0.00,,,0.00,WUHU215HW,2013-05-11 01:37:00,
2013-05-10 20:40:00,62.7,45.6,30.04,North,0,0.0,0.0,53,0.00,,,0.00,WUHU215HW,2013-05-11 01:40:00,
2013-05-10 20:41:00,62.7,45.6,30.04,North,0,0.0,0.0,53,0.00,,,0.00,WUHU215HW,2013-05-11 01:41:00,
2013-05-10 20:42:00,62.7,45.6,30.04,North,0,0.0,0.0,53,0.00,,,0.00,WUHU215HW,2013-05-11 01:42:00,
2013-05-10 20:44:00,62.4,44.9,30.04,North,0,0.0,0.0,53,0.00,,,0.00,WUHU215HW,2013-05-11 01:44:00,
2013-05-10 20:47:00,62.2,44.9,30.04,North,0,0.0,0.0,53,0.00,,,0.00,WUHU215HW,2013-05-11 01:47:00,
2013-05-10 20:48:00,61.8,44.9,30.04,North,0,0.0,0.0,54,0.00,,,0.00,WUHU215HW,2013-05-11 01:48:00,
2013-05-10 20:49:00,61.8,44.9,30.04,North,0,0.0,0.0,54,0.00,,,0.00,WUHU215HW,2013-05-11 01:49:00,
2013-05-10 20:52:00,61.3,44.9,30.04,North,0,0.0,0.0,55,0.00,,,0.00,WUHU215HW,2013-05-11 01:52:00,
2013-05-10 20:53:00,61.3,44.9,30.04,North,0,0.0,0.0,55,0.00,,,0.00,WUHU215HW,2013-05-11 01:53:00,
2013-05-10 20:54:00,61.1,44.8,30.04,North,0,0.0,0.0,55,0.00,,,0.00,WUHU215HW,2013-05-11 01:54:00,
2013-05-10 20:59:00,60.8,44.9,30.04,North,0,0.0,0.0,56,0.00,,,0.00,WUHU215HW,2013-05-11 01:59:00,
2013-05-10 21:00:00,60.6,44.9,30.04,North,0,0.0,0.0,56,0.00,,,0.00,WUHU215HW,2013-05-11 02:00:00,
2013-05-10 21:01:00,60.6,44.9,30.04,North,0,0.0,0.0,56,0.00,,,0.00,WUHU215HW,2013-05-11 02:01:00,
2013-05-10 21:02:00,60.6,44.9,30.04,North,0,0.0,0.0,56,0.00,,,0.00,WUHU215HW,2013-05-11 02:02:00,
2013-05-10 21:05:00,60.2,44.9,30.04,North,0,0.0,0.0,56,0.00,,,0.00,WUHU215HW,2013-05-11 02:05:00,
2013-05-10 21:07:00,60.0,44.9,30.04,North,0,0.0,0.0,57,0.00,,,0.00,WUHU215HW,2013-05-11 02:07:00,
2013-05-10 21:10:00,59.9,44.6,30.04,North,0,0.0,0.0,57,0.00,,,0.00,WUHU215HW,2013-05-11 02:10:00,
2013-05-10 21:11:00,59.9,44.6,30.04,North,0,0.0,0.0,57,0.00,,,0.00,WUHU215HW,2013-05-11 02:11:00,
2013-05-10 21:13:00,59.5,44.6,30.04,North,0,0.0,0.0,58,0.00,,,0.00,WUHU215HW,2013-05-11 02:13:00,
2013-05-10 21:16:00,59.3,44.6,30.04,North,0,0.0,0.0,58,0.00,,,0.00,WUHU215HW,2013-05-11 02:16:00,
2013-05-10 21:18:00,59.1,44.8,30.04,North,0,0.0,0.0,59,0.00,,,0.00,WUHU215HW,2013-05-11 02:18:00,
2013-05-10 21:19:00,59.1,44.8,30.04,North,0,0.0,0.0,59,0.00,,,0.00,WUHU215HW,2013-05-11 02:19:00,
2013-05-10 21:22:00,59.1,44.8,30.04,North,0,0.0,0.0,59,0.00,,,0.00,WUHU215HW,2013-05-11 02:22:00,
2013-05-10 21:23:00,59.1,44.8,30.04,North,0,0.0,0.0,59,0.00,,,0.00,WUHU215HW,2013-05-11 02:23:00,
2013-05-10 21:24:00,58.8,44.5,30.04,North,0,0.0,0.0,59,0.00,,,0.00,WUHU215HW,2013-05-11 02:24:00,
2013-05-10 21:26:00,58.8,44.5,30.04,North,0,0.0,0.0,59,0.00,,,0.00,WUHU215HW,2013-05-11 02:26:00,
2013-05-10 21:28:00,58.4,44.6,30.04,North,0,0.0,0.0,60,0.00,,,0.00,WUHU215HW,2013-05-11 02:28:00,
2013-05-10 21:30:00,58.4,44.6,30.04,North,0,0.0,0.0,60,0.00,,,0.00,WUHU215HW,2013-05-11 02:30:00,
2013-05-10 21:31:00,58.2,44.4,30.04,North,0,0.0,0.0,60,0.00,,,0.00,WUHU215HW,2013-05-11 02:31:00,
2013-05-10 21:32:00,58.2,44.4,30.04,North,0,0.0,0.0,60,0.00,,,0.00,WUHU215HW,2013-05-11 02:32:00,
2013-05-10 21:35:00,57.9,44.5,30.04,North,0,0.0,0.0,61,0.00,,,0.00,WUHU215HW,2013-05-11 02:35:00,
2013-05-10 21:36:00,57.9,44.5,30.04,North,0,0.0,0.0,61,0.00,,,0.00,WUHU215HW,2013-05-11 02:36:00,
2013-05-10 21:37:00,57.9,44.5,30.04,North,0,0.0,0.0,61,0.00,,,0.00,WUHU215HW,2013-05-11 02:37:00,
2013-05-10 21:39:00,57.7,44.5,30.04,North,0,0.0,0.0,62,0.00,,,0.00,WUHU215HW,2013-05-11 02:39:00,
2013-05-10 21:40:00,57.7,44.5,30.04,North,0,0.0,0.0,62,0.00,,,0.00,WUHU215HW,2013-05-11 02:40:00,
2013-05-10 21:43:00,57.3,44.4,30.04,North,0,0.0,0.0,62,0.00,,,0.00,WUHU215HW,2013-05-11 02:43:00,
2013-05-10 21:45:00,57.3,44.4,30.04,North,0,0.0,0.0,62,0.00,,,0.00,WUHU215HW,2013-05-11 02:45:00,
2013-05-10 21:46:00,57.3,44.4,30.04,North,0,0.0,0.0,62,0.00,,,0.00,WUHU215HW,2013-05-11 02:46:00,
2013-05-10 21:48:00,57.0,44.5,30.04,North,0,0.0,0.0,63,0.00,,,0.00,WUHU215HW,2013-05-11 02:48:00,
2013-05-10 21:51:00,56.8,44.3,30.04,North,0,0.0,0.0,63,0.00,,,0.00,WUHU215HW,2013-05-11 02:51:00,
2013-05-10 21:53:00,56.8,44.3,30.04,North,0,0.0,0.0,63,0.00,,,0.00,WUHU215HW,2013-05-11 02:53:00,
2013-05-10 21:54:00,56.4,44.3,30.04,North,0,0.0,0.0,64,0.00,,,0.00,WUHU215HW,2013-05-11 02:54:00,
2013-05-10 21:57:00,56.3,44.3,30.04,North,0,0.0,0.0,64,0.00,,,0.00,WUHU215HW,2013-05-11 02:57:00,
2013-05-10 21:59:00,56.3,44.3,30.04,North,0,0.0,0.0,64,0.00,,,0.00,WUHU215HW,2013-05-11 02:59:00,
2013-05-10 22:00:00,56.3,44.3,30.04,North,0,0.0,0.0,64,0.00,,,0.00,WUHU215HW,2013-05-11 03:00:00,
2013-05-10 22:02:00,56.3,44.2,30.04,North,0,0.0,0.0,64,0.00,,,0.00,WUHU215HW,2013-05-11 03:02:00,
2013-05-10 22:04:00,55.9,44.2,30.04,North,0,0.0,0.0,65,0.00,,,0.00,WUHU215HW,2013-05-11 03:04:00,
2013-05-10 22:05:00,55.7,44.1,30.04,North,0,0.0,0.0,65,0.00,,,0.00,WUHU215HW,2013-05-11 03:05:00,
2013-05-10 22:06:00,55.7,44.1,30.04,North,0,0.0,0.0,65,0.00,,,0.00,WUHU215HW,2013-05-11 03:06:00,
2013-05-10 22:09:00,55.5,44.3,30.04,North,0,0.0,0.0,66,0.00,,,0.00,WUHU215HW,2013-05-11 03:09:00,
2013-05-10 22:12:00,55.5,44.3,30.04,North,0,0.0,0.0,66,0.00,,,0.00,WUHU215HW,2013-05-11 03:12:00,
2013-05-10 22:13:00,55.4,44.2,30.04,North,0,0.0,0.0,66,0.00,,,0.00,WUHU215HW,2013-05-11 03:13:00,
2013-05-10 22:14:00,55.4,44.2,30.04,North,0,0.0,0.0,66,0.00,,,0.00,WUHU215HW,2013-05-11 03:14:00,
2013-05-10 22:15:00,55.2,44.2,30.04,North,0,0.0,0.0,66,0.00,,,0.00,WUHU215HW,2013-05-11 03:15:00,
2013-05-10 22:18:00,55.2,44.0,30.04,North,0,0.0,0.0,66,0.00,,,0.00,WUHU215HW,2013-05-11 03:18:00,
2013-05-10 22:19:00,55.2,44.0,30.04,North,0,0.0,0.0,66,0.00,,,0.00,WUHU215HW,2013-05-11 03:19:00,
2013-05-10 22:20:00,55.2,44.0,30.04,North,0,0.0,0.0,66,0.00,,,0.00,WUHU215HW,2013-05-11 03:20:00,
2013-05-10 22:21:00,55.2,44.0,30.04,North,0,0.0,0.0,66,0.00,,,0.00,WUHU215HW,2013-05-11 03:21:00,
2013-05-10 22:25:00,54.8,44.2,30.04,North,0,0.0,0.0,67,0.00,,,0.00,WUHU215HW,2013-05-11 03:25:00,
2013-05-10 22:26:00,54.8,44.0,30.04,North,0,0.0,0.0,67,0.00,,,0.00,WUHU215HW,2013-05-11 03:26:00,
2013-05-10 22:27:00,54.8,44.0,30.04,North,0,0.0,0.0,67,0.00,,,0.00,WUHU215HW,2013-05-11 03:27:00,
2013-05-10 22:30:00,54.6,44.1,30.04,North,0,0.0,0.0,68,0.00,,,0.00,WUHU215HW,2013-05-11 03:30:00,
2013-05-10 22:31:00,54.5,44.1,30.04,North,0,0.0,0.0,68,0.00,,,0.00,WUHU215HW,2013-05-11 03:31:00,
2013-05-10 22:33:00,54.3,43.9,30.04,North,0,0.0,0.0,68,0.00,,,0.00,WUHU215HW,2013-05-11 03:33:00,
2013-05-10 22:36:00,54.3,43.9,30.04,North,0,0.0,0.0,68,0.00,,,0.00,WUHU215HW,2013-05-11 03:36:00,
2013-05-10 22:37:00,54.1,43.7,30.04,North,0,0.0,0.0,68,0.00,,,0.00,WUHU215HW,2013-05-11 03:37:00,
2013-05-10 22:40:00,54.1,43.7,30.04,North,0,0.0,0.0,68,0.00,,,0.00,WUHU215HW,2013-05-11 03:40:00,
2013-05-10 22:41:00,53.9,44.0,30.04,North,0,0.0,0.0,69,0.00,,,0.00,WUHU215HW,2013-05-11 03:41:00,
2013-05-10 22:42:00,53.9,44.0,30.04,North,0,0.0,0.0,69,0.00,,,0.00,WUHU215HW,2013-05-11 03:42:00,
2013-05-10 22:46:00,53.7,43.8,30.04,North,0,0.0,0.0,69,0.00,,,0.00,WUHU215HW,2013-05-11 03:46:00,
2013-05-10 22:48:00,53.4,43.8,30.04,North,0,0.0,0.0,70,0.00,,,0.00,WUHU215HW,2013-05-11 03:48:00,
2013-05-10 22:49:00,53.4,43.8,30.04,North,0,0.0,0.0,70,0.00,,,0.00,WUHU215HW,2013-05-11 03:49:00,
2013-05-10 22:52:00,53.4,43.8,30.04,North,0,0.0,0.0,70,0.00,,,0.00,WUHU215HW,2013-05-11 03:52:00,
2013-05-10 22:54:00,53.4,43.8,30.04,North,0,0.0,0.0,70,0.00,,,0.00,WUHU215HW,2013-05-11 03:54:00,
2013-05-10 22:55:00,53.4,43.8,30.04,North,0,0.0,0.0,70,0.00,,,0.00,WUHU215HW,2013-05-11 03:55:00,
2013-05-10 22:57:00,53.2,43.7,30.04,North,0,0.0,0.0,70,0.00,,,0.00,WUHU215HW,2013-05-11 03:57:00,
2013-05-10 23:00:00,53.2,44.0,30.04,North,0,0.0,0.0,71,0.00,,,0.00,WUHU215HW,2013-05-11 04:00:00,
2013-05-10 23:01:00,53.0,43.9,30.04,North,0,0.0,0.0,71,0.00,,,0.00,WUHU215HW,2013-05-11 04:01:00,
2013-05-10 23:02:00,53.0,43.9,30.04,North,0,0.0,0.0,71,0.00,,,0.00,WUHU215HW,2013-05-11 04:02:00,
2013-05-10 23:04:00,52.8,43.7,30.04,North,0,0.0,0.0,71,0.00,,,0.00,WUHU215HW,2013-05-11 04:04:00,
2013-05-10 23:06:00,52.8,43.7,30.04,North,0,0.0,0.0,71,0.00,,,0.00,WUHU215HW,2013-05-11 04:06:00,
2013-05-10 23:07:00,52.7,43.5,30.04,North,0,0.0,0.0,71,0.00,,,0.00,WUHU215HW,2013-05-11 04:07:00,
2013-05-10 23:09:00,52.7,43.5,30.04,North,0,0.0,0.0,71,0.00,,,0.00,WUHU215HW,2013-05-11 04:09:00,
2013-05-10 23:10:00,52.7,43.5,30.04,North,0,0.0,0.0,71,0.00,,,0.00,WUHU215HW,2013-05-11 04:10:00,
2013-05-10 23:11:00,52.5,43.7,30.04,North,0,0.0,0.0,72,0.00,,,0.00,WUHU215HW,2013-05-11 04:11:00,
2013-05-10 23:13:00,52.5,43.7,30.04,North,0,0.0,0.0,72,0.00,,,0.00,WUHU215HW,2013-05-11 04:13:00,
2013-05-10 23:14:00,52.5,43.7,30.04,North,0,0.0,0.0,72,0.00,,,0.00,WUHU215HW,2013-05-11 04:14:00,
2013-05-10 23:16:00,52.3,43.6,30.04,North,0,0.0,0.0,72,0.00,,,0.00,WUHU215HW,2013-05-11 04:16:00,
2013-05-10 23:19:00,52.3,43.6,30.04,North,0,0.0,0.0,72,0.00,,,0.00,WUHU215HW,2013-05-11 04:19:00,
2013-05-10 23:20:00,52.3,43.6,30.04,North,0,0.0,0.0,72,0.00,,,0.00,WUHU215HW,2013-05-11 04:20:00,
2013-05-10 23:22:00,52.3,43.9,30.04,North,0,0.0,0.0,73,0.00,,,0.00,WUHU215HW,2013-05-11 04:22:00,
2013-05-10 23:23:00,52.3,43.9,30.04,North,0,0.0,0.0,73,0.00,,,0.00,WUHU215HW,2013-05-11 04:23:00,
2013-05-10 23:26:00,52.1,43.7,30.04,North,0,0.0,0.0,73,0.00,,,0.00,WUHU215HW,2013-05-11 04:26:00,
2013-05-10 23:29:00,52.1,43.7,30.04,North,0,0.0,0.0,73,0.00,,,0.00,WUHU215HW,2013-05-11 04:29:00,
2013-05-10 23:31:00,52.1,43.7,30.04,North,0,0.0,0.0,73,0.00,,,0.00,WUHU215HW,2013-05-11 04:31:00,
2013-05-10 23:33:00,51.9,43.6,30.04,North,0,0.0,0.0,73,0.00,,,0.00,WUHU215HW,2013-05-11 04:33:00,
2013-05-10 23:34:00,51.9,43.6,30.04,North,0,0.0,0.0,73,0.00,,,0.00,WUHU215HW,2013-05-11 04:34:00,
2013-05-10 23:35:00,51.9,43.6,30.04,North,0,0.0,0.0,73,0.00,,,0.00,WUHU215HW,2013-05-11 04:35:00,
2013-05-10 23:37:00,51.8,43.6,30.04,North,0,0.0,0.0,74,0.00,,,0.00,WUHU215HW,2013-05-11 04:37:00,
2013-05-10 23:40:00,51.6,43.6,30.04,North,0,0.0,0.0,74,0.00,,,0.00,WUHU215HW,2013-05-11 04:40:00,
2013-05-10 23:41:00,51.6,43.6,30.04,North,0,0.0,0.0,74,0.00,,,0.00,WUHU215HW,2013-05-11 04:41:00,
2013-05-10 23:42:00,51.6,43.6,30.04,North,0,0.0,0.0,74,0.00,,,0.00,WUHU215HW,2013-05-11 04:42:00,
2013-05-10 23:44:00,51.6,43.6,30.04,North,0,0.0,0.0,74,0.00,,,0.00,WUHU215HW,2013-05-11 04:44:00,
2013-05-10 23:45:00,51.6,43.6,30.04,North,0,0.0,0.0,74,0.00,,,0.00,WUHU215HW,2013-05-11 04:45:00,
2013-05-10 23:47:00,51.6,43.6,30.04,North,0,0.0,0.0,74,0.00,,,0.00,WUHU215HW,2013-05-11 04:47:00,
2013-05-10 23:49:00,51.6,43.6,30.04,North,0,0.0,0.0,74,0.00,,,0.00,WUHU215HW,2013-05-11 04:49:00,
2013-05-10 23:50:00,51.4,43.6,30.04,North,0,0.0,0.0,74,0.00,,,0.00,WUHU215HW,2013-05-11 04:50:00,
2013-05-10 23:51:00,51.4,43.6,30.04,North,0,0.0,0.0,74,0.00,,,0.00,WUHU215HW,2013-05-11 04:51:00,
2013-05-10 23:54:00,51.4,43.7,30.04,North,0,0.0,0.0,75,0.00,,,0.00,WUHU215HW,2013-05-11 04:54:00,
2013-05-10 23:56:00,51.2,43.6,30.04,North,0,0.0,0.0,75,0.00,,,0.00,WUHU215HW,2013-05-11 04:56:00,
2013-05-10 23:57:00,51.2,43.6,30.04,North,0,0.0,0.0,75,0.00,,,0.00,WUHU215HW,2013-05-11 04:57:00,